<?xml version="1.0" encoding="UTF-8" standalone="no" ?>
<gpx xmlns="http://www.topografix.com/GPX/1/1" xmlns:xsi="http://www.w3.org/2001/XMLSchema-instance" xsi:schemaLocation="http://www.topografix.com/GPX/1/1 http://www.topografix.com/GPX/1/1/gpx.xsd" version="1.1" creator="VisuGPX - https://www.visugpx.com">
  <metadata>
    <name>83 - L - Taradeau </name>
    <desc><![CDATA[83 - L - Taradeau : Balcon provençal, Tour Taradel 
2022-12-12]]></desc>
  </metadata>
  <trk>
    <name><![CDATA[Taradeau - Balcon provençal, Tour Taradel 2022-12-12-01]]></name>
    <trkseg>
      <trkpt lat="43.4533" lon="6.43368">
        <ele>162.7</ele>
        <time>2022-12-12T07:59:06Z</time>
      </trkpt>
      <trkpt lat="43.45332" lon="6.43371">
        <ele>162</ele>
        <time>2022-12-12T07:59:07Z</time>
      </trkpt>
      <trkpt lat="43.45342" lon="6.43368">
        <ele>163</ele>
        <time>2022-12-12T07:59:23Z</time>
      </trkpt>
      <trkpt lat="43.45353" lon="6.43369">
        <ele>163</ele>
        <time>2022-12-12T08:00:10Z</time>
      </trkpt>
      <trkpt lat="43.4535" lon="6.43357">
        <ele>164</ele>
        <time>2022-12-12T08:00:42Z</time>
      </trkpt>
      <trkpt lat="43.45345" lon="6.43342">
        <ele>164</ele>
        <time>2022-12-12T08:01:40Z</time>
      </trkpt>
      <trkpt lat="43.45355" lon="6.4334">
        <ele>163</ele>
        <time>2022-12-12T08:01:52Z</time>
      </trkpt>
      <trkpt lat="43.4538" lon="6.4334">
        <ele>159</ele>
        <time>2022-12-12T08:02:18Z</time>
      </trkpt>
      <trkpt lat="43.4539" lon="6.43341">
        <ele>157</ele>
        <time>2022-12-12T08:02:27Z</time>
      </trkpt>
      <trkpt lat="43.45395" lon="6.43326">
        <ele>156</ele>
        <time>2022-12-12T08:02:43Z</time>
      </trkpt>
      <trkpt lat="43.454" lon="6.43311">
        <ele>155</ele>
        <time>2022-12-12T08:02:57Z</time>
      </trkpt>
      <trkpt lat="43.45406" lon="6.43298">
        <ele>153</ele>
        <time>2022-12-12T08:03:21Z</time>
      </trkpt>
      <trkpt lat="43.45415" lon="6.43287">
        <ele>151</ele>
        <time>2022-12-12T08:03:33Z</time>
      </trkpt>
      <trkpt lat="43.45419" lon="6.43272">
        <ele>149</ele>
        <time>2022-12-12T08:03:45Z</time>
      </trkpt>
      <trkpt lat="43.45426" lon="6.43261">
        <ele>147</ele>
        <time>2022-12-12T08:03:57Z</time>
      </trkpt>
      <trkpt lat="43.4543" lon="6.43248">
        <ele>146</ele>
        <time>2022-12-12T08:04:09Z</time>
      </trkpt>
      <trkpt lat="43.45432" lon="6.43228">
        <ele>146</ele>
        <time>2022-12-12T08:04:26Z</time>
      </trkpt>
      <trkpt lat="43.45422" lon="6.43219">
        <ele>146</ele>
        <time>2022-12-12T08:04:39Z</time>
      </trkpt>
      <trkpt lat="43.45419" lon="6.43205">
        <ele>147</ele>
        <time>2022-12-12T08:04:51Z</time>
      </trkpt>
      <trkpt lat="43.45414" lon="6.43191">
        <ele>148</ele>
        <time>2022-12-12T08:04:59Z</time>
      </trkpt>
      <trkpt lat="43.45404" lon="6.43183">
        <ele>148</ele>
        <time>2022-12-12T08:05:23Z</time>
      </trkpt>
      <trkpt lat="43.454" lon="6.43194">
        <ele>151.3</ele>
        <time>2022-12-12T08:06:12Z</time>
      </trkpt>
      <trkpt lat="43.45399" lon="6.43207">
        <ele>152.5</ele>
        <time>2022-12-12T08:06:50Z</time>
      </trkpt>
      <trkpt lat="43.45395" lon="6.43219">
        <ele>156.1</ele>
        <time>2022-12-12T08:07:16Z</time>
      </trkpt>
      <trkpt lat="43.45387" lon="6.43225">
        <ele>165.6</ele>
        <time>2022-12-12T08:09:07Z</time>
      </trkpt>
      <trkpt lat="43.45378" lon="6.43223">
        <ele>167.1</ele>
        <time>2022-12-12T08:09:54Z</time>
      </trkpt>
      <trkpt lat="43.45371" lon="6.43232">
        <ele>167.7</ele>
        <time>2022-12-12T08:10:32Z</time>
      </trkpt>
      <trkpt lat="43.45368" lon="6.43245">
        <ele>168</ele>
        <time>2022-12-12T08:10:49Z</time>
      </trkpt>
      <trkpt lat="43.4537" lon="6.43257">
        <ele>168.4</ele>
        <time>2022-12-12T08:11:02Z</time>
      </trkpt>
      <trkpt lat="43.45369" lon="6.43269">
        <ele>170.1</ele>
        <time>2022-12-12T08:11:18Z</time>
      </trkpt>
      <trkpt lat="43.45367" lon="6.43282">
        <ele>171</ele>
        <time>2022-12-12T08:12:22Z</time>
      </trkpt>
      <trkpt lat="43.45357" lon="6.43281">
        <ele>172.9</ele>
        <time>2022-12-12T08:12:51Z</time>
      </trkpt>
      <trkpt lat="43.45358" lon="6.43294">
        <ele>171.6</ele>
        <time>2022-12-12T08:14:23Z</time>
      </trkpt>
      <trkpt lat="43.45356" lon="6.43306">
        <ele>170.2</ele>
        <time>2022-12-12T08:14:57Z</time>
      </trkpt>
      <trkpt lat="43.45357" lon="6.43319">
        <ele>168.3</ele>
        <time>2022-12-12T08:15:12Z</time>
      </trkpt>
      <trkpt lat="43.45365" lon="6.43314">
        <ele>169.5</ele>
        <time>2022-12-12T08:15:54Z</time>
      </trkpt>
      <trkpt lat="43.45373" lon="6.43307">
        <ele>171.3</ele>
        <time>2022-12-12T08:16:32Z</time>
      </trkpt>
      <trkpt lat="43.45364" lon="6.43311">
        <ele>171.4</ele>
        <time>2022-12-12T08:18:07Z</time>
      </trkpt>
      <trkpt lat="43.4536" lon="6.43322">
        <ele>170.8</ele>
        <time>2022-12-12T08:18:29Z</time>
      </trkpt>
      <trkpt lat="43.45353" lon="6.4333">
        <ele>167.2</ele>
        <time>2022-12-12T08:18:54Z</time>
      </trkpt>
      <trkpt lat="43.45348" lon="6.43341">
        <ele>165.4</ele>
        <time>2022-12-12T08:19:09Z</time>
      </trkpt>
      <trkpt lat="43.45345" lon="6.43352">
        <ele>163.9</ele>
        <time>2022-12-12T08:19:20Z</time>
      </trkpt>
      <trkpt lat="43.45341" lon="6.43365">
        <ele>162.4</ele>
        <time>2022-12-12T08:19:33Z</time>
      </trkpt>
      <trkpt lat="43.45337" lon="6.43378">
        <ele>161.2</ele>
        <time>2022-12-12T08:19:45Z</time>
      </trkpt>
      <trkpt lat="43.45332" lon="6.43389">
        <ele>160.3</ele>
        <time>2022-12-12T08:19:55Z</time>
      </trkpt>
      <trkpt lat="43.45328" lon="6.434">
        <ele>160</ele>
        <time>2022-12-12T08:20:03Z</time>
      </trkpt>
      <trkpt lat="43.4532" lon="6.43406">
        <ele>159.5</ele>
        <time>2022-12-12T08:20:25Z</time>
      </trkpt>
      <trkpt lat="43.45323" lon="6.43418">
        <ele>158.9</ele>
        <time>2022-12-12T08:21:06Z</time>
      </trkpt>
      <trkpt lat="43.45323" lon="6.43432">
        <ele>158.8</ele>
        <time>2022-12-12T08:21:35Z</time>
      </trkpt>
      <trkpt lat="43.4533" lon="6.43442">
        <ele>159.8</ele>
        <time>2022-12-12T08:21:52Z</time>
      </trkpt>
      <trkpt lat="43.45339" lon="6.4344">
        <ele>160.3</ele>
        <time>2022-12-12T08:22:12Z</time>
      </trkpt>
      <trkpt lat="43.45348" lon="6.43441">
        <ele>160.2</ele>
        <time>2022-12-12T08:22:29Z</time>
      </trkpt>
      <trkpt lat="43.45357" lon="6.43439">
        <ele>161.8</ele>
        <time>2022-12-12T08:22:41Z</time>
      </trkpt>
      <trkpt lat="43.45366" lon="6.43434">
        <ele>162.5</ele>
        <time>2022-12-12T08:22:50Z</time>
      </trkpt>
      <trkpt lat="43.45375" lon="6.4343">
        <ele>161.7</ele>
        <time>2022-12-12T08:22:59Z</time>
      </trkpt>
      <trkpt lat="43.45383" lon="6.43424">
        <ele>161.4</ele>
        <time>2022-12-12T08:23:11Z</time>
      </trkpt>
      <trkpt lat="43.45391" lon="6.43417">
        <ele>161.9</ele>
        <time>2022-12-12T08:23:33Z</time>
      </trkpt>
      <trkpt lat="43.45399" lon="6.43412">
        <ele>163.9</ele>
        <time>2022-12-12T08:23:48Z</time>
      </trkpt>
      <trkpt lat="43.45408" lon="6.43408">
        <ele>167.2</ele>
        <time>2022-12-12T08:24:09Z</time>
      </trkpt>
      <trkpt lat="43.45409" lon="6.4342">
        <ele>170.8</ele>
        <time>2022-12-12T08:24:54Z</time>
      </trkpt>
      <trkpt lat="43.45405" lon="6.43432">
        <ele>170.7</ele>
        <time>2022-12-12T08:25:11Z</time>
      </trkpt>
      <trkpt lat="43.45398" lon="6.4344">
        <ele>172.9</ele>
        <time>2022-12-12T08:25:25Z</time>
      </trkpt>
      <trkpt lat="43.45399" lon="6.43453">
        <ele>174.7</ele>
        <time>2022-12-12T08:25:41Z</time>
      </trkpt>
      <trkpt lat="43.45408" lon="6.43453">
        <ele>178.6</ele>
        <time>2022-12-12T08:26:09Z</time>
      </trkpt>
      <trkpt lat="43.45417" lon="6.43451">
        <ele>180</ele>
        <time>2022-12-12T08:26:28Z</time>
      </trkpt>
      <trkpt lat="43.45426" lon="6.43448">
        <ele>181.2</ele>
        <time>2022-12-12T08:26:42Z</time>
      </trkpt>
      <trkpt lat="43.45435" lon="6.43444">
        <ele>183.5</ele>
        <time>2022-12-12T08:26:56Z</time>
      </trkpt>
      <trkpt lat="43.45442" lon="6.43436">
        <ele>183.5</ele>
        <time>2022-12-12T08:27:10Z</time>
      </trkpt>
      <trkpt lat="43.45448" lon="6.43426">
        <ele>183.4</ele>
        <time>2022-12-12T08:27:24Z</time>
      </trkpt>
      <trkpt lat="43.45458" lon="6.43424">
        <ele>183.8</ele>
        <time>2022-12-12T08:27:44Z</time>
      </trkpt>
      <trkpt lat="43.45467" lon="6.43424">
        <ele>184</ele>
        <time>2022-12-12T08:28:44Z</time>
      </trkpt>
      <trkpt lat="43.45477" lon="6.43424">
        <ele>187.4</ele>
        <time>2022-12-12T08:29:09Z</time>
      </trkpt>
      <trkpt lat="43.45478" lon="6.43437">
        <ele>191.6</ele>
        <time>2022-12-12T08:29:50Z</time>
      </trkpt>
      <trkpt lat="43.45485" lon="6.43446">
        <ele>196.5</ele>
        <time>2022-12-12T08:30:20Z</time>
      </trkpt>
      <trkpt lat="43.45494" lon="6.43451">
        <ele>200</ele>
        <time>2022-12-12T08:30:44Z</time>
      </trkpt>
      <trkpt lat="43.45503" lon="6.43453">
        <ele>202.9</ele>
        <time>2022-12-12T08:31:29Z</time>
      </trkpt>
      <trkpt lat="43.45507" lon="6.43464">
        <ele>208.6</ele>
        <time>2022-12-12T08:35:01Z</time>
      </trkpt>
      <trkpt lat="43.45514" lon="6.43473">
        <ele>211.5</ele>
        <time>2022-12-12T08:35:37Z</time>
      </trkpt>
      <trkpt lat="43.45523" lon="6.43474">
        <ele>212.7</ele>
        <time>2022-12-12T08:35:49Z</time>
      </trkpt>
      <trkpt lat="43.45529" lon="6.43483">
        <ele>214.5</ele>
        <time>2022-12-12T08:36:02Z</time>
      </trkpt>
      <trkpt lat="43.45537" lon="6.4349">
        <ele>217.7</ele>
        <time>2022-12-12T08:36:21Z</time>
      </trkpt>
      <trkpt lat="43.45529" lon="6.43497">
        <ele>221.9</ele>
        <time>2022-12-12T08:36:45Z</time>
      </trkpt>
      <trkpt lat="43.45528" lon="6.4351">
        <ele>224.6</ele>
        <time>2022-12-12T08:37:01Z</time>
      </trkpt>
      <trkpt lat="43.45537" lon="6.43513">
        <ele>229.1</ele>
        <time>2022-12-12T08:40:42Z</time>
      </trkpt>
      <trkpt lat="43.45546" lon="6.43518">
        <ele>229.2</ele>
        <time>2022-12-12T08:40:54Z</time>
      </trkpt>
      <trkpt lat="43.45552" lon="6.43527">
        <ele>228.9</ele>
        <time>2022-12-12T08:41:04Z</time>
      </trkpt>
      <trkpt lat="43.45559" lon="6.43537">
        <ele>229.7</ele>
        <time>2022-12-12T08:41:13Z</time>
      </trkpt>
      <trkpt lat="43.45565" lon="6.43547">
        <ele>231.7</ele>
        <time>2022-12-12T08:41:25Z</time>
      </trkpt>
      <trkpt lat="43.4557" lon="6.43558">
        <ele>233.5</ele>
        <time>2022-12-12T08:41:40Z</time>
      </trkpt>
      <trkpt lat="43.45575" lon="6.43569">
        <ele>233.3</ele>
        <time>2022-12-12T08:41:56Z</time>
      </trkpt>
      <trkpt lat="43.45579" lon="6.4358">
        <ele>236.1</ele>
        <time>2022-12-12T08:42:09Z</time>
      </trkpt>
      <trkpt lat="43.45584" lon="6.43591">
        <ele>237</ele>
        <time>2022-12-12T08:42:23Z</time>
      </trkpt>
      <trkpt lat="43.4558" lon="6.43604">
        <ele>237.7</ele>
        <time>2022-12-12T08:47:04Z</time>
      </trkpt>
      <trkpt lat="43.45586" lon="6.43612">
        <ele>238</ele>
        <time>2022-12-12T08:47:13Z</time>
      </trkpt>
      <trkpt lat="43.4559" lon="6.43624">
        <ele>238.9</ele>
        <time>2022-12-12T08:47:24Z</time>
      </trkpt>
      <trkpt lat="43.45588" lon="6.43637">
        <ele>240.8</ele>
        <time>2022-12-12T08:47:38Z</time>
      </trkpt>
      <trkpt lat="43.45589" lon="6.4365">
        <ele>243</ele>
        <time>2022-12-12T08:47:52Z</time>
      </trkpt>
      <trkpt lat="43.45584" lon="6.4366">
        <ele>245</ele>
        <time>2022-12-12T08:49:28Z</time>
      </trkpt>
      <trkpt lat="43.45582" lon="6.43674">
        <ele>246.4</ele>
        <time>2022-12-12T08:49:45Z</time>
      </trkpt>
      <trkpt lat="43.4558" lon="6.43687">
        <ele>246.6</ele>
        <time>2022-12-12T08:49:55Z</time>
      </trkpt>
      <trkpt lat="43.45574" lon="6.43696">
        <ele>246.7</ele>
        <time>2022-12-12T08:50:31Z</time>
      </trkpt>
      <trkpt lat="43.45565" lon="6.437">
        <ele>247.5</ele>
        <time>2022-12-12T08:51:26Z</time>
      </trkpt>
      <trkpt lat="43.45556" lon="6.43694">
        <ele>247.8</ele>
        <time>2022-12-12T08:51:38Z</time>
      </trkpt>
      <trkpt lat="43.45547" lon="6.4369">
        <ele>248.4</ele>
        <time>2022-12-12T08:52:08Z</time>
      </trkpt>
      <trkpt lat="43.45538" lon="6.43684">
        <ele>246.4</ele>
        <time>2022-12-12T08:52:21Z</time>
      </trkpt>
      <trkpt lat="43.45531" lon="6.43677">
        <ele>247.2</ele>
        <time>2022-12-12T08:52:42Z</time>
      </trkpt>
      <trkpt lat="43.45539" lon="6.43672">
        <ele>247.6</ele>
        <time>2022-12-12T08:54:03Z</time>
      </trkpt>
      <trkpt lat="43.45547" lon="6.43666">
        <ele>247.5</ele>
        <time>2022-12-12T08:55:38Z</time>
      </trkpt>
      <trkpt lat="43.45556" lon="6.43671">
        <ele>247</ele>
        <time>2022-12-12T08:55:49Z</time>
      </trkpt>
      <trkpt lat="43.45565" lon="6.43672">
        <ele>246.9</ele>
        <time>2022-12-12T08:56:25Z</time>
      </trkpt>
      <trkpt lat="43.45574" lon="6.43669">
        <ele>246</ele>
        <time>2022-12-12T08:56:49Z</time>
      </trkpt>
      <trkpt lat="43.45565" lon="6.43668">
        <ele>244.6</ele>
        <time>2022-12-12T08:59:45Z</time>
      </trkpt>
      <trkpt lat="43.45567" lon="6.43655">
        <ele>244.4</ele>
        <time>2022-12-12T09:00:07Z</time>
      </trkpt>
      <trkpt lat="43.45571" lon="6.43642">
        <ele>243.7</ele>
        <time>2022-12-12T09:00:17Z</time>
      </trkpt>
      <trkpt lat="43.45569" lon="6.4363">
        <ele>241.7</ele>
        <time>2022-12-12T09:00:28Z</time>
      </trkpt>
      <trkpt lat="43.45572" lon="6.43618">
        <ele>241.1</ele>
        <time>2022-12-12T09:01:28Z</time>
      </trkpt>
      <trkpt lat="43.45564" lon="6.4361">
        <ele>240</ele>
        <time>2022-12-12T09:06:02Z</time>
      </trkpt>
      <trkpt lat="43.45557" lon="6.43602">
        <ele>239.1</ele>
        <time>2022-12-12T09:07:06Z</time>
      </trkpt>
      <trkpt lat="43.45552" lon="6.43591">
        <ele>238.8</ele>
        <time>2022-12-12T09:07:19Z</time>
      </trkpt>
      <trkpt lat="43.45545" lon="6.43581">
        <ele>237.4</ele>
        <time>2022-12-12T09:07:42Z</time>
      </trkpt>
      <trkpt lat="43.45537" lon="6.43574">
        <ele>236.1</ele>
        <time>2022-12-12T09:07:59Z</time>
      </trkpt>
      <trkpt lat="43.45528" lon="6.43573">
        <ele>236</ele>
        <time>2022-12-12T09:08:49Z</time>
      </trkpt>
      <trkpt lat="43.45519" lon="6.43577">
        <ele>235.8</ele>
        <time>2022-12-12T09:09:19Z</time>
      </trkpt>
      <trkpt lat="43.4551" lon="6.43581">
        <ele>235.3</ele>
        <time>2022-12-12T09:09:31Z</time>
      </trkpt>
      <trkpt lat="43.455" lon="6.43578">
        <ele>234.1</ele>
        <time>2022-12-12T09:09:53Z</time>
      </trkpt>
      <trkpt lat="43.45491" lon="6.43576">
        <ele>233.8</ele>
        <time>2022-12-12T09:10:03Z</time>
      </trkpt>
      <trkpt lat="43.45491" lon="6.43589">
        <ele>234.1</ele>
        <time>2022-12-12T09:14:38Z</time>
      </trkpt>
      <trkpt lat="43.45492" lon="6.43601">
        <ele>233.4</ele>
        <time>2022-12-12T09:14:49Z</time>
      </trkpt>
      <trkpt lat="43.45489" lon="6.43614">
        <ele>234.9</ele>
        <time>2022-12-12T09:15:02Z</time>
      </trkpt>
      <trkpt lat="43.4549" lon="6.43626">
        <ele>235.9</ele>
        <time>2022-12-12T09:15:14Z</time>
      </trkpt>
      <trkpt lat="43.4549" lon="6.4364">
        <ele>236.6</ele>
        <time>2022-12-12T09:15:27Z</time>
      </trkpt>
      <trkpt lat="43.45496" lon="6.43649">
        <ele>237.3</ele>
        <time>2022-12-12T09:15:44Z</time>
      </trkpt>
      <trkpt lat="43.45505" lon="6.4365">
        <ele>241.6</ele>
        <time>2022-12-12T09:16:04Z</time>
      </trkpt>
      <trkpt lat="43.45514" lon="6.43655">
        <ele>240.7</ele>
        <time>2022-12-12T09:16:17Z</time>
      </trkpt>
      <trkpt lat="43.45523" lon="6.43658">
        <ele>240.6</ele>
        <time>2022-12-12T09:16:29Z</time>
      </trkpt>
      <trkpt lat="43.45532" lon="6.43659">
        <ele>241.4</ele>
        <time>2022-12-12T09:16:40Z</time>
      </trkpt>
      <trkpt lat="43.45537" lon="6.43669">
        <ele>242.6</ele>
        <time>2022-12-12T09:16:54Z</time>
      </trkpt>
      <trkpt lat="43.45537" lon="6.43682">
        <ele>245.5</ele>
        <time>2022-12-12T09:17:22Z</time>
      </trkpt>
      <trkpt lat="43.45543" lon="6.43692">
        <ele>244.8</ele>
        <time>2022-12-12T09:17:31Z</time>
      </trkpt>
      <trkpt lat="43.45549" lon="6.43702">
        <ele>245</ele>
        <time>2022-12-12T09:17:42Z</time>
      </trkpt>
      <trkpt lat="43.4555" lon="6.43715">
        <ele>245.8</ele>
        <time>2022-12-12T09:18:09Z</time>
      </trkpt>
      <trkpt lat="43.45548" lon="6.43727">
        <ele>246.2</ele>
        <time>2022-12-12T09:18:18Z</time>
      </trkpt>
      <trkpt lat="43.45542" lon="6.43738">
        <ele>244.5</ele>
        <time>2022-12-12T09:18:43Z</time>
      </trkpt>
      <trkpt lat="43.45535" lon="6.43746">
        <ele>245.4</ele>
        <time>2022-12-12T09:18:55Z</time>
      </trkpt>
      <trkpt lat="43.45528" lon="6.43755">
        <ele>246.1</ele>
        <time>2022-12-12T09:19:20Z</time>
      </trkpt>
      <trkpt lat="43.45519" lon="6.43761">
        <ele>246.6</ele>
        <time>2022-12-12T09:19:30Z</time>
      </trkpt>
      <trkpt lat="43.45512" lon="6.43769">
        <ele>249.3</ele>
        <time>2022-12-12T09:19:41Z</time>
      </trkpt>
      <trkpt lat="43.45504" lon="6.43776">
        <ele>249.1</ele>
        <time>2022-12-12T09:19:57Z</time>
      </trkpt>
      <trkpt lat="43.45498" lon="6.43787">
        <ele>250</ele>
        <time>2022-12-12T09:20:15Z</time>
      </trkpt>
      <trkpt lat="43.45494" lon="6.43798">
        <ele>250</ele>
        <time>2022-12-12T09:20:26Z</time>
      </trkpt>
      <trkpt lat="43.45492" lon="6.43811">
        <ele>247.8</ele>
        <time>2022-12-12T09:20:41Z</time>
      </trkpt>
      <trkpt lat="43.4549" lon="6.43824">
        <ele>251</ele>
        <time>2022-12-12T09:20:56Z</time>
      </trkpt>
      <trkpt lat="43.45483" lon="6.43832">
        <ele>248.3</ele>
        <time>2022-12-12T09:21:19Z</time>
      </trkpt>
      <trkpt lat="43.45489" lon="6.43822">
        <ele>251.4</ele>
        <time>2022-12-12T09:27:29Z</time>
      </trkpt>
      <trkpt lat="43.45491" lon="6.43809">
        <ele>249</ele>
        <time>2022-12-12T09:27:42Z</time>
      </trkpt>
      <trkpt lat="43.45495" lon="6.43798">
        <ele>248.3</ele>
        <time>2022-12-12T09:28:14Z</time>
      </trkpt>
      <trkpt lat="43.45501" lon="6.43787">
        <ele>248.6</ele>
        <time>2022-12-12T09:28:25Z</time>
      </trkpt>
      <trkpt lat="43.45507" lon="6.43778">
        <ele>249.2</ele>
        <time>2022-12-12T09:28:41Z</time>
      </trkpt>
      <trkpt lat="43.45512" lon="6.43767">
        <ele>248.3</ele>
        <time>2022-12-12T09:28:57Z</time>
      </trkpt>
      <trkpt lat="43.45519" lon="6.43759">
        <ele>245.8</ele>
        <time>2022-12-12T09:29:08Z</time>
      </trkpt>
      <trkpt lat="43.45527" lon="6.43753">
        <ele>244.3</ele>
        <time>2022-12-12T09:29:18Z</time>
      </trkpt>
      <trkpt lat="43.45536" lon="6.43749">
        <ele>245.5</ele>
        <time>2022-12-12T09:29:42Z</time>
      </trkpt>
      <trkpt lat="43.45545" lon="6.43744">
        <ele>245.2</ele>
        <time>2022-12-12T09:30:23Z</time>
      </trkpt>
      <trkpt lat="43.45554" lon="6.43741">
        <ele>243</ele>
        <time>2022-12-12T09:30:36Z</time>
      </trkpt>
      <trkpt lat="43.45562" lon="6.43735">
        <ele>242.4</ele>
        <time>2022-12-12T09:31:00Z</time>
      </trkpt>
      <trkpt lat="43.45572" lon="6.43731">
        <ele>241.3</ele>
        <time>2022-12-12T09:31:10Z</time>
      </trkpt>
      <trkpt lat="43.45581" lon="6.43729">
        <ele>240.7</ele>
        <time>2022-12-12T09:31:21Z</time>
      </trkpt>
      <trkpt lat="43.4559" lon="6.43727">
        <ele>239</ele>
        <time>2022-12-12T09:31:34Z</time>
      </trkpt>
      <trkpt lat="43.456" lon="6.43727">
        <ele>236.7</ele>
        <time>2022-12-12T09:31:45Z</time>
      </trkpt>
      <trkpt lat="43.45608" lon="6.43722">
        <ele>235.8</ele>
        <time>2022-12-12T09:32:10Z</time>
      </trkpt>
      <trkpt lat="43.45617" lon="6.43724">
        <ele>234.2</ele>
        <time>2022-12-12T09:32:39Z</time>
      </trkpt>
      <trkpt lat="43.45627" lon="6.43723">
        <ele>232.4</ele>
        <time>2022-12-12T09:32:52Z</time>
      </trkpt>
      <trkpt lat="43.45636" lon="6.43723">
        <ele>233.4</ele>
        <time>2022-12-12T09:33:15Z</time>
      </trkpt>
      <trkpt lat="43.45645" lon="6.43725">
        <ele>232</ele>
        <time>2022-12-12T09:33:25Z</time>
      </trkpt>
      <trkpt lat="43.45654" lon="6.43729">
        <ele>231</ele>
        <time>2022-12-12T09:33:36Z</time>
      </trkpt>
      <trkpt lat="43.45663" lon="6.43734">
        <ele>229.8</ele>
        <time>2022-12-12T09:33:49Z</time>
      </trkpt>
      <trkpt lat="43.45671" lon="6.43739">
        <ele>228.6</ele>
        <time>2022-12-12T09:34:10Z</time>
      </trkpt>
      <trkpt lat="43.4568" lon="6.43744">
        <ele>227.4</ele>
        <time>2022-12-12T09:34:25Z</time>
      </trkpt>
      <trkpt lat="43.45688" lon="6.43752">
        <ele>225.8</ele>
        <time>2022-12-12T09:34:37Z</time>
      </trkpt>
      <trkpt lat="43.45694" lon="6.43761">
        <ele>224.4</ele>
        <time>2022-12-12T09:34:52Z</time>
      </trkpt>
      <trkpt lat="43.45699" lon="6.43772">
        <ele>224.1</ele>
        <time>2022-12-12T09:35:05Z</time>
      </trkpt>
      <trkpt lat="43.45705" lon="6.43783">
        <ele>220.7</ele>
        <time>2022-12-12T09:35:23Z</time>
      </trkpt>
      <trkpt lat="43.45711" lon="6.43792">
        <ele>217.9</ele>
        <time>2022-12-12T09:35:34Z</time>
      </trkpt>
      <trkpt lat="43.45717" lon="6.43802">
        <ele>218.9</ele>
        <time>2022-12-12T09:35:46Z</time>
      </trkpt>
      <trkpt lat="43.45723" lon="6.43813">
        <ele>218.4</ele>
        <time>2022-12-12T09:36:01Z</time>
      </trkpt>
      <trkpt lat="43.45728" lon="6.43824">
        <ele>216.5</ele>
        <time>2022-12-12T09:36:14Z</time>
      </trkpt>
      <trkpt lat="43.45732" lon="6.43835">
        <ele>214.5</ele>
        <time>2022-12-12T09:36:27Z</time>
      </trkpt>
      <trkpt lat="43.45737" lon="6.43846">
        <ele>212.3</ele>
        <time>2022-12-12T09:36:39Z</time>
      </trkpt>
      <trkpt lat="43.4574" lon="6.43858">
        <ele>211.8</ele>
        <time>2022-12-12T09:36:51Z</time>
      </trkpt>
      <trkpt lat="43.45743" lon="6.43871">
        <ele>211.7</ele>
        <time>2022-12-12T09:37:04Z</time>
      </trkpt>
      <trkpt lat="43.45746" lon="6.43883">
        <ele>207.5</ele>
        <time>2022-12-12T09:37:21Z</time>
      </trkpt>
      <trkpt lat="43.45748" lon="6.43896">
        <ele>208</ele>
        <time>2022-12-12T09:37:30Z</time>
      </trkpt>
      <trkpt lat="43.4575" lon="6.43909">
        <ele>208.1</ele>
        <time>2022-12-12T09:37:43Z</time>
      </trkpt>
      <trkpt lat="43.45751" lon="6.43921">
        <ele>206.1</ele>
        <time>2022-12-12T09:37:53Z</time>
      </trkpt>
      <trkpt lat="43.45751" lon="6.43934">
        <ele>203.7</ele>
        <time>2022-12-12T09:38:09Z</time>
      </trkpt>
      <trkpt lat="43.4575" lon="6.43947">
        <ele>203.6</ele>
        <time>2022-12-12T09:38:20Z</time>
      </trkpt>
      <trkpt lat="43.45748" lon="6.4396">
        <ele>202.9</ele>
        <time>2022-12-12T09:38:31Z</time>
      </trkpt>
      <trkpt lat="43.45746" lon="6.43972">
        <ele>201.4</ele>
        <time>2022-12-12T09:38:42Z</time>
      </trkpt>
      <trkpt lat="43.45743" lon="6.43986">
        <ele>201.6</ele>
        <time>2022-12-12T09:38:54Z</time>
      </trkpt>
      <trkpt lat="43.45744" lon="6.43998">
        <ele>198.7</ele>
        <time>2022-12-12T09:39:05Z</time>
      </trkpt>
      <trkpt lat="43.45745" lon="6.44011">
        <ele>196.4</ele>
        <time>2022-12-12T09:39:17Z</time>
      </trkpt>
      <trkpt lat="43.45747" lon="6.44023">
        <ele>197.1</ele>
        <time>2022-12-12T09:39:29Z</time>
      </trkpt>
      <trkpt lat="43.45751" lon="6.44035">
        <ele>197.8</ele>
        <time>2022-12-12T09:39:40Z</time>
      </trkpt>
      <trkpt lat="43.45755" lon="6.44047">
        <ele>192.9</ele>
        <time>2022-12-12T09:39:54Z</time>
      </trkpt>
      <trkpt lat="43.4576" lon="6.44058">
        <ele>192.9</ele>
        <time>2022-12-12T09:40:07Z</time>
      </trkpt>
      <trkpt lat="43.45766" lon="6.44069">
        <ele>193.6</ele>
        <time>2022-12-12T09:40:19Z</time>
      </trkpt>
      <trkpt lat="43.4577" lon="6.44079">
        <ele>193.1</ele>
        <time>2022-12-12T09:40:31Z</time>
      </trkpt>
      <trkpt lat="43.45776" lon="6.44089">
        <ele>191.6</ele>
        <time>2022-12-12T09:40:42Z</time>
      </trkpt>
      <trkpt lat="43.45783" lon="6.44097">
        <ele>189</ele>
        <time>2022-12-12T09:40:55Z</time>
      </trkpt>
      <trkpt lat="43.45792" lon="6.44097">
        <ele>190.5</ele>
        <time>2022-12-12T09:41:07Z</time>
      </trkpt>
      <trkpt lat="43.45802" lon="6.44095">
        <ele>187.3</ele>
        <time>2022-12-12T09:41:35Z</time>
      </trkpt>
      <trkpt lat="43.45811" lon="6.44093">
        <ele>188.5</ele>
        <time>2022-12-12T09:41:48Z</time>
      </trkpt>
      <trkpt lat="43.4582" lon="6.44093">
        <ele>185.8</ele>
        <time>2022-12-12T09:42:00Z</time>
      </trkpt>
      <trkpt lat="43.45829" lon="6.44094">
        <ele>183.4</ele>
        <time>2022-12-12T09:42:15Z</time>
      </trkpt>
      <trkpt lat="43.45839" lon="6.44093">
        <ele>182.2</ele>
        <time>2022-12-12T09:42:26Z</time>
      </trkpt>
      <trkpt lat="43.45849" lon="6.44092">
        <ele>178.5</ele>
        <time>2022-12-12T09:42:40Z</time>
      </trkpt>
      <trkpt lat="43.45858" lon="6.4409">
        <ele>180.2</ele>
        <time>2022-12-12T09:42:53Z</time>
      </trkpt>
      <trkpt lat="43.45867" lon="6.44088">
        <ele>178.8</ele>
        <time>2022-12-12T09:43:05Z</time>
      </trkpt>
      <trkpt lat="43.45875" lon="6.44081">
        <ele>177</ele>
        <time>2022-12-12T09:43:23Z</time>
      </trkpt>
      <trkpt lat="43.45885" lon="6.44081">
        <ele>176.1</ele>
        <time>2022-12-12T09:43:37Z</time>
      </trkpt>
      <trkpt lat="43.45894" lon="6.4408">
        <ele>175.6</ele>
        <time>2022-12-12T09:43:49Z</time>
      </trkpt>
      <trkpt lat="43.45902" lon="6.44075">
        <ele>174.2</ele>
        <time>2022-12-12T09:44:01Z</time>
      </trkpt>
      <trkpt lat="43.4591" lon="6.44067">
        <ele>173.2</ele>
        <time>2022-12-12T09:44:14Z</time>
      </trkpt>
      <trkpt lat="43.45919" lon="6.44061">
        <ele>172</ele>
        <time>2022-12-12T09:44:28Z</time>
      </trkpt>
      <trkpt lat="43.45927" lon="6.44055">
        <ele>171.2</ele>
        <time>2022-12-12T09:44:45Z</time>
      </trkpt>
      <trkpt lat="43.45936" lon="6.44051">
        <ele>170.2</ele>
        <time>2022-12-12T09:44:56Z</time>
      </trkpt>
      <trkpt lat="43.45942" lon="6.44041">
        <ele>171</ele>
        <time>2022-12-12T09:45:07Z</time>
      </trkpt>
      <trkpt lat="43.45949" lon="6.44032">
        <ele>170.6</ele>
        <time>2022-12-12T09:45:18Z</time>
      </trkpt>
      <trkpt lat="43.45957" lon="6.44025">
        <ele>170.1</ele>
        <time>2022-12-12T09:45:33Z</time>
      </trkpt>
      <trkpt lat="43.45963" lon="6.44016">
        <ele>169.9</ele>
        <time>2022-12-12T09:45:45Z</time>
      </trkpt>
      <trkpt lat="43.45969" lon="6.44006">
        <ele>170.2</ele>
        <time>2022-12-12T09:45:58Z</time>
      </trkpt>
      <trkpt lat="43.45977" lon="6.43999">
        <ele>173.7</ele>
        <time>2022-12-12T09:46:28Z</time>
      </trkpt>
      <trkpt lat="43.45978" lon="6.43985">
        <ele>172.5</ele>
        <time>2022-12-12T09:47:22Z</time>
      </trkpt>
      <trkpt lat="43.45982" lon="6.43974">
        <ele>172.7</ele>
        <time>2022-12-12T09:47:35Z</time>
      </trkpt>
      <trkpt lat="43.45985" lon="6.43962">
        <ele>174.1</ele>
        <time>2022-12-12T09:47:47Z</time>
      </trkpt>
      <trkpt lat="43.45986" lon="6.43949">
        <ele>175.1</ele>
        <time>2022-12-12T09:47:57Z</time>
      </trkpt>
      <trkpt lat="43.45986" lon="6.43936">
        <ele>176</ele>
        <time>2022-12-12T09:48:08Z</time>
      </trkpt>
      <trkpt lat="43.45988" lon="6.43923">
        <ele>176.3</ele>
        <time>2022-12-12T09:48:20Z</time>
      </trkpt>
      <trkpt lat="43.45992" lon="6.43911">
        <ele>176.9</ele>
        <time>2022-12-12T09:48:31Z</time>
      </trkpt>
      <trkpt lat="43.45999" lon="6.43903">
        <ele>177.7</ele>
        <time>2022-12-12T09:48:42Z</time>
      </trkpt>
      <trkpt lat="43.46008" lon="6.43898">
        <ele>178.7</ele>
        <time>2022-12-12T09:48:55Z</time>
      </trkpt>
      <trkpt lat="43.46017" lon="6.43894">
        <ele>179.6</ele>
        <time>2022-12-12T09:49:07Z</time>
      </trkpt>
      <trkpt lat="43.46025" lon="6.43888">
        <ele>179.8</ele>
        <time>2022-12-12T09:49:18Z</time>
      </trkpt>
      <trkpt lat="43.46032" lon="6.43879">
        <ele>181.8</ele>
        <time>2022-12-12T09:49:32Z</time>
      </trkpt>
      <trkpt lat="43.46038" lon="6.43869">
        <ele>182.7</ele>
        <time>2022-12-12T09:49:56Z</time>
      </trkpt>
      <trkpt lat="43.46042" lon="6.43858">
        <ele>183.6</ele>
        <time>2022-12-12T09:50:14Z</time>
      </trkpt>
      <trkpt lat="43.46049" lon="6.43849">
        <ele>183.8</ele>
        <time>2022-12-12T09:50:26Z</time>
      </trkpt>
      <trkpt lat="43.46055" lon="6.43839">
        <ele>185.6</ele>
        <time>2022-12-12T09:50:38Z</time>
      </trkpt>
      <trkpt lat="43.46059" lon="6.43828">
        <ele>184.4</ele>
        <time>2022-12-12T09:50:52Z</time>
      </trkpt>
      <trkpt lat="43.46065" lon="6.43817">
        <ele>186</ele>
        <time>2022-12-12T09:51:04Z</time>
      </trkpt>
      <trkpt lat="43.46073" lon="6.43813">
        <ele>186.7</ele>
        <time>2022-12-12T09:51:58Z</time>
      </trkpt>
      <trkpt lat="43.46079" lon="6.43802">
        <ele>186.7</ele>
        <time>2022-12-12T09:52:13Z</time>
      </trkpt>
      <trkpt lat="43.46082" lon="6.43789">
        <ele>187</ele>
        <time>2022-12-12T09:52:28Z</time>
      </trkpt>
      <trkpt lat="43.46083" lon="6.43776">
        <ele>187.5</ele>
        <time>2022-12-12T09:52:42Z</time>
      </trkpt>
      <trkpt lat="43.46088" lon="6.43765">
        <ele>188.4</ele>
        <time>2022-12-12T09:52:55Z</time>
      </trkpt>
      <trkpt lat="43.46092" lon="6.43755">
        <ele>188.9</ele>
        <time>2022-12-12T09:53:06Z</time>
      </trkpt>
      <trkpt lat="43.461" lon="6.43749">
        <ele>189.6</ele>
        <time>2022-12-12T09:53:53Z</time>
      </trkpt>
      <trkpt lat="43.46109" lon="6.43742">
        <ele>191.3</ele>
        <time>2022-12-12T09:54:09Z</time>
      </trkpt>
      <trkpt lat="43.46117" lon="6.43737">
        <ele>187.7</ele>
        <time>2022-12-12T09:54:30Z</time>
      </trkpt>
      <trkpt lat="43.46126" lon="6.43733">
        <ele>190.6</ele>
        <time>2022-12-12T09:54:43Z</time>
      </trkpt>
      <trkpt lat="43.46135" lon="6.43738">
        <ele>193.4</ele>
        <time>2022-12-12T09:54:59Z</time>
      </trkpt>
      <trkpt lat="43.46142" lon="6.43746">
        <ele>193</ele>
        <time>2022-12-12T09:55:15Z</time>
      </trkpt>
      <trkpt lat="43.4615" lon="6.43753">
        <ele>194.5</ele>
        <time>2022-12-12T09:55:32Z</time>
      </trkpt>
      <trkpt lat="43.46157" lon="6.43761">
        <ele>193.9</ele>
        <time>2022-12-12T09:55:49Z</time>
      </trkpt>
      <trkpt lat="43.46165" lon="6.43769">
        <ele>194.5</ele>
        <time>2022-12-12T09:56:01Z</time>
      </trkpt>
      <trkpt lat="43.4617" lon="6.43779">
        <ele>195.3</ele>
        <time>2022-12-12T09:56:11Z</time>
      </trkpt>
      <trkpt lat="43.46178" lon="6.43785">
        <ele>196.7</ele>
        <time>2022-12-12T09:57:01Z</time>
      </trkpt>
      <trkpt lat="43.46188" lon="6.43784">
        <ele>198</ele>
        <time>2022-12-12T09:57:16Z</time>
      </trkpt>
      <trkpt lat="43.46197" lon="6.43782">
        <ele>199.8</ele>
        <time>2022-12-12T09:57:34Z</time>
      </trkpt>
      <trkpt lat="43.46206" lon="6.4378">
        <ele>199.9</ele>
        <time>2022-12-12T09:58:27Z</time>
      </trkpt>
      <trkpt lat="43.46211" lon="6.4377">
        <ele>200.5</ele>
        <time>2022-12-12T09:58:49Z</time>
      </trkpt>
      <trkpt lat="43.46216" lon="6.43758">
        <ele>201.3</ele>
        <time>2022-12-12T09:59:01Z</time>
      </trkpt>
      <trkpt lat="43.46221" lon="6.43748">
        <ele>201</ele>
        <time>2022-12-12T09:59:11Z</time>
      </trkpt>
      <trkpt lat="43.46225" lon="6.43736">
        <ele>201.9</ele>
        <time>2022-12-12T09:59:24Z</time>
      </trkpt>
      <trkpt lat="43.46231" lon="6.43726">
        <ele>201.2</ele>
        <time>2022-12-12T09:59:37Z</time>
      </trkpt>
      <trkpt lat="43.46234" lon="6.43714">
        <ele>200.7</ele>
        <time>2022-12-12T09:59:50Z</time>
      </trkpt>
      <trkpt lat="43.46239" lon="6.43703">
        <ele>200.6</ele>
        <time>2022-12-12T10:00:12Z</time>
      </trkpt>
      <trkpt lat="43.46243" lon="6.43691">
        <ele>200.8</ele>
        <time>2022-12-12T10:00:23Z</time>
      </trkpt>
      <trkpt lat="43.46248" lon="6.4368">
        <ele>201.1</ele>
        <time>2022-12-12T10:00:41Z</time>
      </trkpt>
      <trkpt lat="43.46252" lon="6.43668">
        <ele>201.5</ele>
        <time>2022-12-12T10:00:57Z</time>
      </trkpt>
      <trkpt lat="43.46257" lon="6.43656">
        <ele>201.7</ele>
        <time>2022-12-12T10:01:08Z</time>
      </trkpt>
      <trkpt lat="43.46261" lon="6.43646">
        <ele>201.9</ele>
        <time>2022-12-12T10:01:17Z</time>
      </trkpt>
      <trkpt lat="43.46267" lon="6.43634">
        <ele>202.2</ele>
        <time>2022-12-12T10:01:31Z</time>
      </trkpt>
      <trkpt lat="43.46273" lon="6.43624">
        <ele>202.2</ele>
        <time>2022-12-12T10:01:40Z</time>
      </trkpt>
      <trkpt lat="43.46279" lon="6.43614">
        <ele>202.2</ele>
        <time>2022-12-12T10:01:50Z</time>
      </trkpt>
      <trkpt lat="43.46285" lon="6.43604">
        <ele>202.3</ele>
        <time>2022-12-12T10:02:01Z</time>
      </trkpt>
      <trkpt lat="43.46291" lon="6.43594">
        <ele>202.3</ele>
        <time>2022-12-12T10:02:15Z</time>
      </trkpt>
      <trkpt lat="43.46297" lon="6.43584">
        <ele>202.2</ele>
        <time>2022-12-12T10:02:25Z</time>
      </trkpt>
      <trkpt lat="43.46303" lon="6.43574">
        <ele>202.2</ele>
        <time>2022-12-12T10:02:35Z</time>
      </trkpt>
      <trkpt lat="43.46309" lon="6.43564">
        <ele>202.2</ele>
        <time>2022-12-12T10:02:49Z</time>
      </trkpt>
      <trkpt lat="43.46314" lon="6.43554">
        <ele>202.1</ele>
        <time>2022-12-12T10:03:00Z</time>
      </trkpt>
      <trkpt lat="43.46317" lon="6.43542">
        <ele>202.4</ele>
        <time>2022-12-12T10:03:13Z</time>
      </trkpt>
      <trkpt lat="43.46324" lon="6.43532">
        <ele>202.6</ele>
        <time>2022-12-12T10:03:23Z</time>
      </trkpt>
      <trkpt lat="43.4633" lon="6.43522">
        <ele>203.2</ele>
        <time>2022-12-12T10:03:33Z</time>
      </trkpt>
      <trkpt lat="43.46337" lon="6.43514">
        <ele>203.3</ele>
        <time>2022-12-12T10:03:43Z</time>
      </trkpt>
      <trkpt lat="43.46344" lon="6.43505">
        <ele>203.1</ele>
        <time>2022-12-12T10:03:54Z</time>
      </trkpt>
      <trkpt lat="43.4635" lon="6.43495">
        <ele>203.3</ele>
        <time>2022-12-12T10:04:04Z</time>
      </trkpt>
      <trkpt lat="43.46356" lon="6.43484">
        <ele>203.5</ele>
        <time>2022-12-12T10:04:14Z</time>
      </trkpt>
      <trkpt lat="43.46362" lon="6.43475">
        <ele>203.9</ele>
        <time>2022-12-12T10:04:25Z</time>
      </trkpt>
      <trkpt lat="43.46368" lon="6.43465">
        <ele>202.5</ele>
        <time>2022-12-12T10:04:39Z</time>
      </trkpt>
      <trkpt lat="43.46374" lon="6.43455">
        <ele>206</ele>
        <time>2022-12-12T10:04:49Z</time>
      </trkpt>
      <trkpt lat="43.46379" lon="6.43445">
        <ele>204.9</ele>
        <time>2022-12-12T10:05:00Z</time>
      </trkpt>
      <trkpt lat="43.46386" lon="6.43435">
        <ele>206.1</ele>
        <time>2022-12-12T10:05:11Z</time>
      </trkpt>
      <trkpt lat="43.46393" lon="6.43427">
        <ele>206.3</ele>
        <time>2022-12-12T10:05:27Z</time>
      </trkpt>
      <trkpt lat="43.46398" lon="6.43417">
        <ele>205.7</ele>
        <time>2022-12-12T10:05:37Z</time>
      </trkpt>
      <trkpt lat="43.46404" lon="6.43407">
        <ele>206.1</ele>
        <time>2022-12-12T10:05:52Z</time>
      </trkpt>
      <trkpt lat="43.46409" lon="6.43397">
        <ele>205.3</ele>
        <time>2022-12-12T10:06:23Z</time>
      </trkpt>
      <trkpt lat="43.46418" lon="6.43399">
        <ele>205.1</ele>
        <time>2022-12-12T10:06:38Z</time>
      </trkpt>
      <trkpt lat="43.46413" lon="6.43389">
        <ele>203.7</ele>
        <time>2022-12-12T10:07:55Z</time>
      </trkpt>
      <trkpt lat="43.46415" lon="6.43376">
        <ele>202.1</ele>
        <time>2022-12-12T10:08:03Z</time>
      </trkpt>
      <trkpt lat="43.46419" lon="6.43364">
        <ele>203.8</ele>
        <time>2022-12-12T10:08:12Z</time>
      </trkpt>
      <trkpt lat="43.46422" lon="6.43352">
        <ele>204.2</ele>
        <time>2022-12-12T10:08:20Z</time>
      </trkpt>
      <trkpt lat="43.46424" lon="6.43339">
        <ele>204.5</ele>
        <time>2022-12-12T10:08:28Z</time>
      </trkpt>
      <trkpt lat="43.46428" lon="6.43327">
        <ele>204.6</ele>
        <time>2022-12-12T10:08:39Z</time>
      </trkpt>
      <trkpt lat="43.46431" lon="6.43315">
        <ele>204.8</ele>
        <time>2022-12-12T10:08:47Z</time>
      </trkpt>
      <trkpt lat="43.46438" lon="6.43306">
        <ele>204.4</ele>
        <time>2022-12-12T10:08:55Z</time>
      </trkpt>
      <trkpt lat="43.46443" lon="6.43295">
        <ele>204.4</ele>
        <time>2022-12-12T10:09:03Z</time>
      </trkpt>
      <trkpt lat="43.46448" lon="6.43285">
        <ele>204.9</ele>
        <time>2022-12-12T10:09:12Z</time>
      </trkpt>
      <trkpt lat="43.46454" lon="6.43274">
        <ele>205.2</ele>
        <time>2022-12-12T10:09:21Z</time>
      </trkpt>
      <trkpt lat="43.4646" lon="6.43263">
        <ele>205.1</ele>
        <time>2022-12-12T10:09:31Z</time>
      </trkpt>
      <trkpt lat="43.46468" lon="6.43255">
        <ele>205.5</ele>
        <time>2022-12-12T10:09:42Z</time>
      </trkpt>
      <trkpt lat="43.46476" lon="6.4325">
        <ele>206.2</ele>
        <time>2022-12-12T10:09:54Z</time>
      </trkpt>
      <trkpt lat="43.46483" lon="6.43242">
        <ele>205.7</ele>
        <time>2022-12-12T10:10:06Z</time>
      </trkpt>
      <trkpt lat="43.46489" lon="6.43232">
        <ele>205.8</ele>
        <time>2022-12-12T10:10:25Z</time>
      </trkpt>
      <trkpt lat="43.46494" lon="6.43221">
        <ele>205.5</ele>
        <time>2022-12-12T10:10:38Z</time>
      </trkpt>
      <trkpt lat="43.46495" lon="6.43209">
        <ele>205.7</ele>
        <time>2022-12-12T10:11:02Z</time>
      </trkpt>
      <trkpt lat="43.46501" lon="6.43199">
        <ele>206.8</ele>
        <time>2022-12-12T10:11:13Z</time>
      </trkpt>
      <trkpt lat="43.4651" lon="6.43195">
        <ele>206.2</ele>
        <time>2022-12-12T10:11:23Z</time>
      </trkpt>
      <trkpt lat="43.4652" lon="6.43191">
        <ele>206.1</ele>
        <time>2022-12-12T10:11:34Z</time>
      </trkpt>
      <trkpt lat="43.46529" lon="6.43187">
        <ele>206.5</ele>
        <time>2022-12-12T10:11:44Z</time>
      </trkpt>
      <trkpt lat="43.46539" lon="6.43185">
        <ele>205.9</ele>
        <time>2022-12-12T10:11:55Z</time>
      </trkpt>
      <trkpt lat="43.46549" lon="6.43184">
        <ele>206.1</ele>
        <time>2022-12-12T10:12:07Z</time>
      </trkpt>
      <trkpt lat="43.46558" lon="6.43184">
        <ele>206.2</ele>
        <time>2022-12-12T10:12:18Z</time>
      </trkpt>
      <trkpt lat="43.46568" lon="6.43184">
        <ele>206.4</ele>
        <time>2022-12-12T10:12:30Z</time>
      </trkpt>
      <trkpt lat="43.46577" lon="6.43184">
        <ele>206.6</ele>
        <time>2022-12-12T10:12:42Z</time>
      </trkpt>
      <trkpt lat="43.46587" lon="6.43183">
        <ele>206.4</ele>
        <time>2022-12-12T10:12:52Z</time>
      </trkpt>
      <trkpt lat="43.46596" lon="6.43182">
        <ele>207.2</ele>
        <time>2022-12-12T10:13:02Z</time>
      </trkpt>
      <trkpt lat="43.46606" lon="6.43181">
        <ele>207.1</ele>
        <time>2022-12-12T10:13:13Z</time>
      </trkpt>
      <trkpt lat="43.46615" lon="6.4318">
        <ele>205.8</ele>
        <time>2022-12-12T10:13:24Z</time>
      </trkpt>
      <trkpt lat="43.46624" lon="6.43177">
        <ele>210.7</ele>
        <time>2022-12-12T10:13:38Z</time>
      </trkpt>
      <trkpt lat="43.46632" lon="6.43173">
        <ele>209.6</ele>
        <time>2022-12-12T10:13:49Z</time>
      </trkpt>
      <trkpt lat="43.46641" lon="6.43167">
        <ele>210</ele>
        <time>2022-12-12T10:14:02Z</time>
      </trkpt>
      <trkpt lat="43.46649" lon="6.43162">
        <ele>208.7</ele>
        <time>2022-12-12T10:14:12Z</time>
      </trkpt>
      <trkpt lat="43.46658" lon="6.43156">
        <ele>210.8</ele>
        <time>2022-12-12T10:14:23Z</time>
      </trkpt>
      <trkpt lat="43.46666" lon="6.4315">
        <ele>212.1</ele>
        <time>2022-12-12T10:14:35Z</time>
      </trkpt>
      <trkpt lat="43.46673" lon="6.43142">
        <ele>213.4</ele>
        <time>2022-12-12T10:15:21Z</time>
      </trkpt>
      <trkpt lat="43.46675" lon="6.4313">
        <ele>214.3</ele>
        <time>2022-12-12T10:15:33Z</time>
      </trkpt>
      <trkpt lat="43.46671" lon="6.43118">
        <ele>215</ele>
        <time>2022-12-12T10:15:45Z</time>
      </trkpt>
      <trkpt lat="43.46667" lon="6.43106">
        <ele>214.6</ele>
        <time>2022-12-12T10:15:54Z</time>
      </trkpt>
      <trkpt lat="43.46665" lon="6.43094">
        <ele>214.2</ele>
        <time>2022-12-12T10:16:04Z</time>
      </trkpt>
      <trkpt lat="43.46664" lon="6.43081">
        <ele>215.8</ele>
        <time>2022-12-12T10:16:15Z</time>
      </trkpt>
      <trkpt lat="43.46664" lon="6.43068">
        <ele>216.3</ele>
        <time>2022-12-12T10:16:27Z</time>
      </trkpt>
      <trkpt lat="43.46668" lon="6.43079">
        <ele>217.8</ele>
        <time>2022-12-12T10:17:26Z</time>
      </trkpt>
      <trkpt lat="43.46671" lon="6.43091">
        <ele>215.9</ele>
        <time>2022-12-12T10:17:38Z</time>
      </trkpt>
      <trkpt lat="43.46675" lon="6.43103">
        <ele>215.4</ele>
        <time>2022-12-12T10:17:50Z</time>
      </trkpt>
      <trkpt lat="43.46667" lon="6.43098">
        <ele>214.1</ele>
        <time>2022-12-12T10:19:07Z</time>
      </trkpt>
      <trkpt lat="43.46668" lon="6.43085">
        <ele>216.4</ele>
        <time>2022-12-12T10:19:16Z</time>
      </trkpt>
      <trkpt lat="43.46668" lon="6.43072">
        <ele>213.7</ele>
        <time>2022-12-12T10:19:26Z</time>
      </trkpt>
      <trkpt lat="43.46668" lon="6.43059">
        <ele>217.8</ele>
        <time>2022-12-12T10:19:37Z</time>
      </trkpt>
      <trkpt lat="43.46669" lon="6.43046">
        <ele>216.9</ele>
        <time>2022-12-12T10:19:51Z</time>
      </trkpt>
      <trkpt lat="43.46667" lon="6.43033">
        <ele>217.5</ele>
        <time>2022-12-12T10:21:01Z</time>
      </trkpt>
      <trkpt lat="43.46674" lon="6.43025">
        <ele>216.8</ele>
        <time>2022-12-12T10:21:16Z</time>
      </trkpt>
      <trkpt lat="43.4668" lon="6.43014">
        <ele>217</ele>
        <time>2022-12-12T10:21:43Z</time>
      </trkpt>
      <trkpt lat="43.46688" lon="6.43008">
        <ele>213.6</ele>
        <time>2022-12-12T10:21:55Z</time>
      </trkpt>
      <trkpt lat="43.46697" lon="6.43007">
        <ele>215.3</ele>
        <time>2022-12-12T10:22:04Z</time>
      </trkpt>
      <trkpt lat="43.46706" lon="6.43006">
        <ele>216.9</ele>
        <time>2022-12-12T10:22:14Z</time>
      </trkpt>
      <trkpt lat="43.46715" lon="6.43002">
        <ele>215.1</ele>
        <time>2022-12-12T10:22:27Z</time>
      </trkpt>
      <trkpt lat="43.46725" lon="6.43002">
        <ele>218.6</ele>
        <time>2022-12-12T10:22:35Z</time>
      </trkpt>
      <trkpt lat="43.46735" lon="6.43002">
        <ele>216.6</ele>
        <time>2022-12-12T10:22:58Z</time>
      </trkpt>
      <trkpt lat="43.46744" lon="6.42998">
        <ele>216</ele>
        <time>2022-12-12T10:23:09Z</time>
      </trkpt>
      <trkpt lat="43.46753" lon="6.42995">
        <ele>215.4</ele>
        <time>2022-12-12T10:23:26Z</time>
      </trkpt>
      <trkpt lat="43.46761" lon="6.42988">
        <ele>216.9</ele>
        <time>2022-12-12T10:23:42Z</time>
      </trkpt>
      <trkpt lat="43.46768" lon="6.42979">
        <ele>218.4</ele>
        <time>2022-12-12T10:24:03Z</time>
      </trkpt>
      <trkpt lat="43.46776" lon="6.42972">
        <ele>217.8</ele>
        <time>2022-12-12T10:24:13Z</time>
      </trkpt>
      <trkpt lat="43.46784" lon="6.42963">
        <ele>219</ele>
        <time>2022-12-12T10:25:28Z</time>
      </trkpt>
      <trkpt lat="43.46791" lon="6.42954">
        <ele>220</ele>
        <time>2022-12-12T10:25:54Z</time>
      </trkpt>
      <trkpt lat="43.46799" lon="6.42951">
        <ele>221.2</ele>
        <time>2022-12-12T10:27:06Z</time>
      </trkpt>
      <trkpt lat="43.46807" lon="6.42944">
        <ele>220.9</ele>
        <time>2022-12-12T10:27:21Z</time>
      </trkpt>
      <trkpt lat="43.46815" lon="6.42939">
        <ele>217.3</ele>
        <time>2022-12-12T10:27:34Z</time>
      </trkpt>
      <trkpt lat="43.46824" lon="6.42936">
        <ele>221</ele>
        <time>2022-12-12T10:27:45Z</time>
      </trkpt>
      <trkpt lat="43.46833" lon="6.42931">
        <ele>220.4</ele>
        <time>2022-12-12T10:27:55Z</time>
      </trkpt>
      <trkpt lat="43.46841" lon="6.42929">
        <ele>219.3</ele>
        <time>2022-12-12T10:28:06Z</time>
      </trkpt>
      <trkpt lat="43.46851" lon="6.42928">
        <ele>217</ele>
        <time>2022-12-12T10:28:23Z</time>
      </trkpt>
      <trkpt lat="43.46861" lon="6.42927">
        <ele>218.3</ele>
        <time>2022-12-12T10:28:33Z</time>
      </trkpt>
      <trkpt lat="43.46871" lon="6.42929">
        <ele>217.1</ele>
        <time>2022-12-12T10:28:42Z</time>
      </trkpt>
      <trkpt lat="43.46881" lon="6.42929">
        <ele>217.8</ele>
        <time>2022-12-12T10:28:52Z</time>
      </trkpt>
      <trkpt lat="43.46891" lon="6.42928">
        <ele>220.2</ele>
        <time>2022-12-12T10:29:03Z</time>
      </trkpt>
      <trkpt lat="43.469" lon="6.42928">
        <ele>218.6</ele>
        <time>2022-12-12T10:29:22Z</time>
      </trkpt>
      <trkpt lat="43.4691" lon="6.42927">
        <ele>217.8</ele>
        <time>2022-12-12T10:29:35Z</time>
      </trkpt>
      <trkpt lat="43.46919" lon="6.42927">
        <ele>215.2</ele>
        <time>2022-12-12T10:29:48Z</time>
      </trkpt>
      <trkpt lat="43.46928" lon="6.42929">
        <ele>216.3</ele>
        <time>2022-12-12T10:30:00Z</time>
      </trkpt>
      <trkpt lat="43.46937" lon="6.42925">
        <ele>215.1</ele>
        <time>2022-12-12T10:30:11Z</time>
      </trkpt>
      <trkpt lat="43.46945" lon="6.42918">
        <ele>215.7</ele>
        <time>2022-12-12T10:30:22Z</time>
      </trkpt>
      <trkpt lat="43.46952" lon="6.42911">
        <ele>217.9</ele>
        <time>2022-12-12T10:30:31Z</time>
      </trkpt>
      <trkpt lat="43.46957" lon="6.429">
        <ele>216.5</ele>
        <time>2022-12-12T10:30:46Z</time>
      </trkpt>
      <trkpt lat="43.46959" lon="6.42888">
        <ele>215.7</ele>
        <time>2022-12-12T10:31:02Z</time>
      </trkpt>
      <trkpt lat="43.46965" lon="6.42877">
        <ele>216.2</ele>
        <time>2022-12-12T10:31:25Z</time>
      </trkpt>
      <trkpt lat="43.46971" lon="6.42868">
        <ele>216.1</ele>
        <time>2022-12-12T10:31:40Z</time>
      </trkpt>
      <trkpt lat="43.46977" lon="6.42859">
        <ele>216.5</ele>
        <time>2022-12-12T10:31:53Z</time>
      </trkpt>
      <trkpt lat="43.4698" lon="6.42845">
        <ele>219.1</ele>
        <time>2022-12-12T10:32:04Z</time>
      </trkpt>
      <trkpt lat="43.46984" lon="6.42834">
        <ele>222.8</ele>
        <time>2022-12-12T10:32:16Z</time>
      </trkpt>
      <trkpt lat="43.46989" lon="6.42823">
        <ele>219.2</ele>
        <time>2022-12-12T10:32:32Z</time>
      </trkpt>
      <trkpt lat="43.46995" lon="6.42814">
        <ele>216.3</ele>
        <time>2022-12-12T10:32:50Z</time>
      </trkpt>
      <trkpt lat="43.47004" lon="6.4281">
        <ele>217.6</ele>
        <time>2022-12-12T10:33:01Z</time>
      </trkpt>
      <trkpt lat="43.47012" lon="6.42804">
        <ele>216.9</ele>
        <time>2022-12-12T10:33:18Z</time>
      </trkpt>
      <trkpt lat="43.47017" lon="6.42792">
        <ele>217.8</ele>
        <time>2022-12-12T10:33:33Z</time>
      </trkpt>
      <trkpt lat="43.47024" lon="6.42782">
        <ele>217.7</ele>
        <time>2022-12-12T10:33:44Z</time>
      </trkpt>
      <trkpt lat="43.47033" lon="6.42783">
        <ele>218.3</ele>
        <time>2022-12-12T10:34:13Z</time>
      </trkpt>
      <trkpt lat="43.47038" lon="6.42771">
        <ele>217.8</ele>
        <time>2022-12-12T10:34:23Z</time>
      </trkpt>
      <trkpt lat="43.47043" lon="6.4276">
        <ele>217.5</ele>
        <time>2022-12-12T10:34:32Z</time>
      </trkpt>
      <trkpt lat="43.47049" lon="6.4275">
        <ele>217.3</ele>
        <time>2022-12-12T10:34:40Z</time>
      </trkpt>
      <trkpt lat="43.4705" lon="6.42736">
        <ele>217.7</ele>
        <time>2022-12-12T10:34:48Z</time>
      </trkpt>
      <trkpt lat="43.47051" lon="6.42724">
        <ele>219.3</ele>
        <time>2022-12-12T10:34:58Z</time>
      </trkpt>
      <trkpt lat="43.47056" lon="6.42713">
        <ele>219.9</ele>
        <time>2022-12-12T10:35:16Z</time>
      </trkpt>
      <trkpt lat="43.47064" lon="6.42704">
        <ele>221.2</ele>
        <time>2022-12-12T10:35:31Z</time>
      </trkpt>
      <trkpt lat="43.4707" lon="6.42695">
        <ele>223.2</ele>
        <time>2022-12-12T10:35:41Z</time>
      </trkpt>
      <trkpt lat="43.47073" lon="6.42683">
        <ele>222.8</ele>
        <time>2022-12-12T10:35:57Z</time>
      </trkpt>
      <trkpt lat="43.4708" lon="6.42676">
        <ele>222.4</ele>
        <time>2022-12-12T10:36:07Z</time>
      </trkpt>
      <trkpt lat="43.47086" lon="6.42666">
        <ele>221.9</ele>
        <time>2022-12-12T10:36:17Z</time>
      </trkpt>
      <trkpt lat="43.47091" lon="6.42655">
        <ele>221.3</ele>
        <time>2022-12-12T10:36:32Z</time>
      </trkpt>
      <trkpt lat="43.47097" lon="6.42646">
        <ele>220.5</ele>
        <time>2022-12-12T10:36:45Z</time>
      </trkpt>
      <trkpt lat="43.47101" lon="6.42635">
        <ele>219.9</ele>
        <time>2022-12-12T10:36:57Z</time>
      </trkpt>
      <trkpt lat="43.47103" lon="6.42622">
        <ele>219.7</ele>
        <time>2022-12-12T10:37:12Z</time>
      </trkpt>
      <trkpt lat="43.47112" lon="6.4262">
        <ele>220.1</ele>
        <time>2022-12-12T10:37:35Z</time>
      </trkpt>
      <trkpt lat="43.4712" lon="6.42625">
        <ele>220.5</ele>
        <time>2022-12-12T10:37:49Z</time>
      </trkpt>
      <trkpt lat="43.47113" lon="6.42634">
        <ele>222.8</ele>
        <time>2022-12-12T10:39:25Z</time>
      </trkpt>
      <trkpt lat="43.47122" lon="6.4263">
        <ele>221.5</ele>
        <time>2022-12-12T10:41:26Z</time>
      </trkpt>
      <trkpt lat="43.47132" lon="6.42631">
        <ele>221.5</ele>
        <time>2022-12-12T10:41:39Z</time>
      </trkpt>
      <trkpt lat="43.47141" lon="6.42634">
        <ele>221.7</ele>
        <time>2022-12-12T10:41:56Z</time>
      </trkpt>
      <trkpt lat="43.47151" lon="6.42633">
        <ele>226.2</ele>
        <time>2022-12-12T10:42:28Z</time>
      </trkpt>
      <trkpt lat="43.4716" lon="6.42634">
        <ele>227.7</ele>
        <time>2022-12-12T10:42:40Z</time>
      </trkpt>
      <trkpt lat="43.47169" lon="6.42637">
        <ele>229.3</ele>
        <time>2022-12-12T10:42:56Z</time>
      </trkpt>
      <trkpt lat="43.47178" lon="6.42641">
        <ele>231.7</ele>
        <time>2022-12-12T10:43:17Z</time>
      </trkpt>
      <trkpt lat="43.47188" lon="6.42641">
        <ele>232.1</ele>
        <time>2022-12-12T10:43:33Z</time>
      </trkpt>
      <trkpt lat="43.47197" lon="6.42639">
        <ele>233.5</ele>
        <time>2022-12-12T10:43:48Z</time>
      </trkpt>
      <trkpt lat="43.47206" lon="6.4264">
        <ele>233.8</ele>
        <time>2022-12-12T10:44:00Z</time>
      </trkpt>
      <trkpt lat="43.47216" lon="6.42639">
        <ele>234.4</ele>
        <time>2022-12-12T10:44:12Z</time>
      </trkpt>
      <trkpt lat="43.47225" lon="6.42638">
        <ele>234.8</ele>
        <time>2022-12-12T10:44:22Z</time>
      </trkpt>
      <trkpt lat="43.47235" lon="6.42635">
        <ele>234.5</ele>
        <time>2022-12-12T10:44:33Z</time>
      </trkpt>
      <trkpt lat="43.47244" lon="6.42633">
        <ele>233.6</ele>
        <time>2022-12-12T10:44:47Z</time>
      </trkpt>
      <trkpt lat="43.47248" lon="6.42621">
        <ele>232.7</ele>
        <time>2022-12-12T10:45:00Z</time>
      </trkpt>
      <trkpt lat="43.47257" lon="6.4262">
        <ele>231.7</ele>
        <time>2022-12-12T10:45:11Z</time>
      </trkpt>
      <trkpt lat="43.47266" lon="6.42624">
        <ele>230.6</ele>
        <time>2022-12-12T10:45:24Z</time>
      </trkpt>
      <trkpt lat="43.47275" lon="6.42628">
        <ele>229.6</ele>
        <time>2022-12-12T10:45:35Z</time>
      </trkpt>
      <trkpt lat="43.47283" lon="6.42634">
        <ele>225.6</ele>
        <time>2022-12-12T10:45:50Z</time>
      </trkpt>
      <trkpt lat="43.47292" lon="6.42638">
        <ele>227</ele>
        <time>2022-12-12T10:46:00Z</time>
      </trkpt>
      <trkpt lat="43.47301" lon="6.42635">
        <ele>227.1</ele>
        <time>2022-12-12T10:46:10Z</time>
      </trkpt>
      <trkpt lat="43.473" lon="6.42622">
        <ele>225.8</ele>
        <time>2022-12-12T10:46:28Z</time>
      </trkpt>
      <trkpt lat="43.47294" lon="6.42612">
        <ele>224.7</ele>
        <time>2022-12-12T10:46:40Z</time>
      </trkpt>
      <trkpt lat="43.47293" lon="6.42599">
        <ele>225.5</ele>
        <time>2022-12-12T10:47:03Z</time>
      </trkpt>
      <trkpt lat="43.47291" lon="6.42587">
        <ele>222.8</ele>
        <time>2022-12-12T10:47:24Z</time>
      </trkpt>
      <trkpt lat="43.47295" lon="6.42575">
        <ele>220.2</ele>
        <time>2022-12-12T10:47:35Z</time>
      </trkpt>
      <trkpt lat="43.47301" lon="6.42565">
        <ele>218.5</ele>
        <time>2022-12-12T10:47:46Z</time>
      </trkpt>
      <trkpt lat="43.47307" lon="6.42555">
        <ele>219.5</ele>
        <time>2022-12-12T10:47:59Z</time>
      </trkpt>
      <trkpt lat="43.47312" lon="6.42545">
        <ele>219.5</ele>
        <time>2022-12-12T10:48:57Z</time>
      </trkpt>
      <trkpt lat="43.47319" lon="6.42536">
        <ele>216.6</ele>
        <time>2022-12-12T10:49:35Z</time>
      </trkpt>
      <trkpt lat="43.47325" lon="6.42526">
        <ele>215.7</ele>
        <time>2022-12-12T10:49:52Z</time>
      </trkpt>
      <trkpt lat="43.4733" lon="6.42516">
        <ele>215.4</ele>
        <time>2022-12-12T10:50:04Z</time>
      </trkpt>
      <trkpt lat="43.47336" lon="6.42504">
        <ele>214</ele>
        <time>2022-12-12T10:50:23Z</time>
      </trkpt>
      <trkpt lat="43.47342" lon="6.42495">
        <ele>213.4</ele>
        <time>2022-12-12T10:50:36Z</time>
      </trkpt>
      <trkpt lat="43.47345" lon="6.42483">
        <ele>213</ele>
        <time>2022-12-12T10:50:46Z</time>
      </trkpt>
      <trkpt lat="43.47348" lon="6.4247">
        <ele>213.4</ele>
        <time>2022-12-12T10:51:04Z</time>
      </trkpt>
      <trkpt lat="43.47351" lon="6.42458">
        <ele>211.2</ele>
        <time>2022-12-12T10:51:15Z</time>
      </trkpt>
      <trkpt lat="43.47356" lon="6.42447">
        <ele>208.9</ele>
        <time>2022-12-12T10:51:31Z</time>
      </trkpt>
      <trkpt lat="43.47358" lon="6.42434">
        <ele>210.4</ele>
        <time>2022-12-12T10:51:46Z</time>
      </trkpt>
      <trkpt lat="43.47363" lon="6.42424">
        <ele>206.8</ele>
        <time>2022-12-12T10:52:24Z</time>
      </trkpt>
      <trkpt lat="43.47364" lon="6.42412">
        <ele>205.9</ele>
        <time>2022-12-12T10:52:58Z</time>
      </trkpt>
      <trkpt lat="43.47368" lon="6.424">
        <ele>205</ele>
        <time>2022-12-12T10:53:36Z</time>
      </trkpt>
      <trkpt lat="43.47371" lon="6.42388">
        <ele>204.3</ele>
        <time>2022-12-12T10:53:59Z</time>
      </trkpt>
      <trkpt lat="43.47372" lon="6.42375">
        <ele>203</ele>
        <time>2022-12-12T10:54:25Z</time>
      </trkpt>
      <trkpt lat="43.47375" lon="6.42363">
        <ele>202.5</ele>
        <time>2022-12-12T10:54:48Z</time>
      </trkpt>
      <trkpt lat="43.47381" lon="6.42353">
        <ele>202</ele>
        <time>2022-12-12T10:55:01Z</time>
      </trkpt>
      <trkpt lat="43.47388" lon="6.42345">
        <ele>200.8</ele>
        <time>2022-12-12T10:55:15Z</time>
      </trkpt>
      <trkpt lat="43.47395" lon="6.42337">
        <ele>198.4</ele>
        <time>2022-12-12T10:55:30Z</time>
      </trkpt>
      <trkpt lat="43.47403" lon="6.42331">
        <ele>193.4</ele>
        <time>2022-12-12T10:55:40Z</time>
      </trkpt>
      <trkpt lat="43.47411" lon="6.42324">
        <ele>198.9</ele>
        <time>2022-12-12T10:56:29Z</time>
      </trkpt>
      <trkpt lat="43.47419" lon="6.42319">
        <ele>191.3</ele>
        <time>2022-12-12T10:56:53Z</time>
      </trkpt>
      <trkpt lat="43.47424" lon="6.42308">
        <ele>194.1</ele>
        <time>2022-12-12T10:57:44Z</time>
      </trkpt>
      <trkpt lat="43.47432" lon="6.42302">
        <ele>193</ele>
        <time>2022-12-12T10:58:28Z</time>
      </trkpt>
      <trkpt lat="43.47441" lon="6.42297">
        <ele>192.7</ele>
        <time>2022-12-12T10:58:44Z</time>
      </trkpt>
      <trkpt lat="43.47449" lon="6.42292">
        <ele>192.3</ele>
        <time>2022-12-12T10:59:03Z</time>
      </trkpt>
      <trkpt lat="43.47456" lon="6.42284">
        <ele>190.5</ele>
        <time>2022-12-12T10:59:20Z</time>
      </trkpt>
      <trkpt lat="43.47465" lon="6.42284">
        <ele>187.3</ele>
        <time>2022-12-12T10:59:38Z</time>
      </trkpt>
      <trkpt lat="43.47473" lon="6.42277">
        <ele>187.7</ele>
        <time>2022-12-12T10:59:55Z</time>
      </trkpt>
      <trkpt lat="43.47481" lon="6.4227">
        <ele>187.8</ele>
        <time>2022-12-12T11:00:10Z</time>
      </trkpt>
      <trkpt lat="43.47487" lon="6.4226">
        <ele>184.5</ele>
        <time>2022-12-12T11:00:29Z</time>
      </trkpt>
      <trkpt lat="43.47495" lon="6.42255">
        <ele>184.3</ele>
        <time>2022-12-12T11:00:42Z</time>
      </trkpt>
      <trkpt lat="43.47501" lon="6.42245">
        <ele>184</ele>
        <time>2022-12-12T11:00:58Z</time>
      </trkpt>
      <trkpt lat="43.47507" lon="6.42236">
        <ele>183.6</ele>
        <time>2022-12-12T11:01:08Z</time>
      </trkpt>
      <trkpt lat="43.47506" lon="6.42223">
        <ele>183.1</ele>
        <time>2022-12-12T11:01:35Z</time>
      </trkpt>
      <trkpt lat="43.47504" lon="6.42211">
        <ele>182.9</ele>
        <time>2022-12-12T11:01:47Z</time>
      </trkpt>
      <trkpt lat="43.47502" lon="6.42198">
        <ele>183.8</ele>
        <time>2022-12-12T11:02:01Z</time>
      </trkpt>
      <trkpt lat="43.47502" lon="6.42185">
        <ele>182.2</ele>
        <time>2022-12-12T11:02:17Z</time>
      </trkpt>
      <trkpt lat="43.475" lon="6.42173">
        <ele>181.6</ele>
        <time>2022-12-12T11:02:29Z</time>
      </trkpt>
      <trkpt lat="43.47499" lon="6.4216">
        <ele>181.1</ele>
        <time>2022-12-12T11:02:40Z</time>
      </trkpt>
      <trkpt lat="43.47496" lon="6.42148">
        <ele>180.8</ele>
        <time>2022-12-12T11:02:52Z</time>
      </trkpt>
      <trkpt lat="43.47494" lon="6.42136">
        <ele>180.4</ele>
        <time>2022-12-12T11:03:04Z</time>
      </trkpt>
      <trkpt lat="43.47491" lon="6.42124">
        <ele>179.8</ele>
        <time>2022-12-12T11:03:17Z</time>
      </trkpt>
      <trkpt lat="43.47488" lon="6.42111">
        <ele>179.3</ele>
        <time>2022-12-12T11:03:29Z</time>
      </trkpt>
      <trkpt lat="43.47486" lon="6.42099">
        <ele>178.5</ele>
        <time>2022-12-12T11:03:43Z</time>
      </trkpt>
      <trkpt lat="43.47486" lon="6.42086">
        <ele>177.8</ele>
        <time>2022-12-12T11:03:58Z</time>
      </trkpt>
      <trkpt lat="43.47485" lon="6.42074">
        <ele>174.7</ele>
        <time>2022-12-12T11:04:11Z</time>
      </trkpt>
      <trkpt lat="43.47482" lon="6.42061">
        <ele>177.7</ele>
        <time>2022-12-12T11:04:22Z</time>
      </trkpt>
      <trkpt lat="43.4748" lon="6.42049">
        <ele>174.7</ele>
        <time>2022-12-12T11:04:34Z</time>
      </trkpt>
      <trkpt lat="43.47478" lon="6.42037">
        <ele>174.7</ele>
        <time>2022-12-12T11:04:49Z</time>
      </trkpt>
      <trkpt lat="43.47477" lon="6.42024">
        <ele>173</ele>
        <time>2022-12-12T11:05:03Z</time>
      </trkpt>
      <trkpt lat="43.47478" lon="6.42011">
        <ele>173.5</ele>
        <time>2022-12-12T11:05:19Z</time>
      </trkpt>
      <trkpt lat="43.47481" lon="6.41999">
        <ele>173.2</ele>
        <time>2022-12-12T11:05:31Z</time>
      </trkpt>
      <trkpt lat="43.47486" lon="6.41988">
        <ele>171.8</ele>
        <time>2022-12-12T11:05:46Z</time>
      </trkpt>
      <trkpt lat="43.4749" lon="6.41977">
        <ele>171.7</ele>
        <time>2022-12-12T11:05:59Z</time>
      </trkpt>
      <trkpt lat="43.47494" lon="6.41965">
        <ele>172.9</ele>
        <time>2022-12-12T11:06:09Z</time>
      </trkpt>
      <trkpt lat="43.47498" lon="6.41953">
        <ele>170.8</ele>
        <time>2022-12-12T11:06:21Z</time>
      </trkpt>
      <trkpt lat="43.475" lon="6.41941">
        <ele>169.8</ele>
        <time>2022-12-12T11:06:36Z</time>
      </trkpt>
      <trkpt lat="43.47506" lon="6.4193">
        <ele>167.5</ele>
        <time>2022-12-12T11:06:48Z</time>
      </trkpt>
      <trkpt lat="43.47507" lon="6.41918">
        <ele>167.4</ele>
        <time>2022-12-12T11:07:04Z</time>
      </trkpt>
      <trkpt lat="43.47511" lon="6.41906">
        <ele>168.8</ele>
        <time>2022-12-12T11:09:42Z</time>
      </trkpt>
      <trkpt lat="43.47514" lon="6.41918">
        <ele>169.3</ele>
        <time>2022-12-12T11:10:03Z</time>
      </trkpt>
      <trkpt lat="43.47515" lon="6.41931">
        <ele>164.8</ele>
        <time>2022-12-12T11:10:16Z</time>
      </trkpt>
      <trkpt lat="43.4751" lon="6.41944">
        <ele>165.3</ele>
        <time>2022-12-12T11:10:29Z</time>
      </trkpt>
      <trkpt lat="43.47508" lon="6.41956">
        <ele>168.6</ele>
        <time>2022-12-12T11:10:43Z</time>
      </trkpt>
      <trkpt lat="43.47506" lon="6.41969">
        <ele>164.5</ele>
        <time>2022-12-12T11:10:56Z</time>
      </trkpt>
      <trkpt lat="43.47505" lon="6.41982">
        <ele>162.6</ele>
        <time>2022-12-12T11:11:07Z</time>
      </trkpt>
      <trkpt lat="43.47507" lon="6.41995">
        <ele>163.3</ele>
        <time>2022-12-12T11:11:21Z</time>
      </trkpt>
      <trkpt lat="43.47506" lon="6.42007">
        <ele>161.6</ele>
        <time>2022-12-12T11:11:33Z</time>
      </trkpt>
      <trkpt lat="43.47506" lon="6.42021">
        <ele>162</ele>
        <time>2022-12-12T11:11:46Z</time>
      </trkpt>
      <trkpt lat="43.47509" lon="6.42033">
        <ele>160.2</ele>
        <time>2022-12-12T11:11:58Z</time>
      </trkpt>
      <trkpt lat="43.47512" lon="6.42046">
        <ele>160.2</ele>
        <time>2022-12-12T11:12:10Z</time>
      </trkpt>
      <trkpt lat="43.4752" lon="6.42052">
        <ele>159.4</ele>
        <time>2022-12-12T11:12:20Z</time>
      </trkpt>
      <trkpt lat="43.47521" lon="6.42039">
        <ele>157.6</ele>
        <time>2022-12-12T11:12:36Z</time>
      </trkpt>
      <trkpt lat="43.47519" lon="6.42027">
        <ele>156.2</ele>
        <time>2022-12-12T11:12:49Z</time>
      </trkpt>
      <trkpt lat="43.47518" lon="6.42014">
        <ele>155.8</ele>
        <time>2022-12-12T11:13:02Z</time>
      </trkpt>
      <trkpt lat="43.47522" lon="6.42002">
        <ele>156.4</ele>
        <time>2022-12-12T11:13:14Z</time>
      </trkpt>
      <trkpt lat="43.47525" lon="6.4199">
        <ele>154.2</ele>
        <time>2022-12-12T11:13:27Z</time>
      </trkpt>
      <trkpt lat="43.4753" lon="6.4198">
        <ele>153</ele>
        <time>2022-12-12T11:13:39Z</time>
      </trkpt>
      <trkpt lat="43.47533" lon="6.41967">
        <ele>151.6</ele>
        <time>2022-12-12T11:13:51Z</time>
      </trkpt>
      <trkpt lat="43.47537" lon="6.41956">
        <ele>151.2</ele>
        <time>2022-12-12T11:14:04Z</time>
      </trkpt>
      <trkpt lat="43.47544" lon="6.41947">
        <ele>151.7</ele>
        <time>2022-12-12T11:14:14Z</time>
      </trkpt>
      <trkpt lat="43.47549" lon="6.41937">
        <ele>150.4</ele>
        <time>2022-12-12T11:14:26Z</time>
      </trkpt>
      <trkpt lat="43.47554" lon="6.41925">
        <ele>149.4</ele>
        <time>2022-12-12T11:14:40Z</time>
      </trkpt>
      <trkpt lat="43.47558" lon="6.41914">
        <ele>148.9</ele>
        <time>2022-12-12T11:14:53Z</time>
      </trkpt>
      <trkpt lat="43.47561" lon="6.41902">
        <ele>148.5</ele>
        <time>2022-12-12T11:15:07Z</time>
      </trkpt>
      <trkpt lat="43.47563" lon="6.41889">
        <ele>147.2</ele>
        <time>2022-12-12T11:15:18Z</time>
      </trkpt>
      <trkpt lat="43.47564" lon="6.41876">
        <ele>148.8</ele>
        <time>2022-12-12T11:15:35Z</time>
      </trkpt>
      <trkpt lat="43.47561" lon="6.41864">
        <ele>144.1</ele>
        <time>2022-12-12T11:15:49Z</time>
      </trkpt>
      <trkpt lat="43.47559" lon="6.41851">
        <ele>143.2</ele>
        <time>2022-12-12T11:16:02Z</time>
      </trkpt>
      <trkpt lat="43.47557" lon="6.41838">
        <ele>142.7</ele>
        <time>2022-12-12T11:16:15Z</time>
      </trkpt>
      <trkpt lat="43.47552" lon="6.41827">
        <ele>142</ele>
        <time>2022-12-12T11:16:27Z</time>
      </trkpt>
      <trkpt lat="43.47547" lon="6.41816">
        <ele>141.6</ele>
        <time>2022-12-12T11:16:40Z</time>
      </trkpt>
      <trkpt lat="43.47541" lon="6.41806">
        <ele>140.6</ele>
        <time>2022-12-12T11:16:51Z</time>
      </trkpt>
      <trkpt lat="43.47539" lon="6.41794">
        <ele>138.3</ele>
        <time>2022-12-12T11:19:19Z</time>
      </trkpt>
      <trkpt lat="43.47531" lon="6.41787">
        <ele>138.8</ele>
        <time>2022-12-12T11:19:31Z</time>
      </trkpt>
      <trkpt lat="43.47523" lon="6.41779">
        <ele>137.5</ele>
        <time>2022-12-12T11:19:49Z</time>
      </trkpt>
      <trkpt lat="43.47515" lon="6.41776">
        <ele>138.7</ele>
        <time>2022-12-12T11:20:02Z</time>
      </trkpt>
      <trkpt lat="43.47508" lon="6.41767">
        <ele>136.9</ele>
        <time>2022-12-12T11:20:26Z</time>
      </trkpt>
      <trkpt lat="43.47506" lon="6.41754">
        <ele>136.2</ele>
        <time>2022-12-12T11:20:51Z</time>
      </trkpt>
      <trkpt lat="43.47499" lon="6.41747">
        <ele>136.3</ele>
        <time>2022-12-12T11:21:07Z</time>
      </trkpt>
      <trkpt lat="43.47492" lon="6.41737">
        <ele>135.5</ele>
        <time>2022-12-12T11:21:18Z</time>
      </trkpt>
      <trkpt lat="43.47485" lon="6.41729">
        <ele>133.9</ele>
        <time>2022-12-12T11:21:32Z</time>
      </trkpt>
      <trkpt lat="43.47477" lon="6.41723">
        <ele>132.5</ele>
        <time>2022-12-12T11:21:43Z</time>
      </trkpt>
      <trkpt lat="43.47469" lon="6.41716">
        <ele>134.4</ele>
        <time>2022-12-12T11:21:58Z</time>
      </trkpt>
      <trkpt lat="43.47464" lon="6.41706">
        <ele>129.8</ele>
        <time>2022-12-12T11:22:11Z</time>
      </trkpt>
      <trkpt lat="43.47456" lon="6.41698">
        <ele>129</ele>
        <time>2022-12-12T11:22:21Z</time>
      </trkpt>
      <trkpt lat="43.47451" lon="6.41688">
        <ele>127.9</ele>
        <time>2022-12-12T11:22:33Z</time>
      </trkpt>
      <trkpt lat="43.47445" lon="6.41678">
        <ele>127</ele>
        <time>2022-12-12T11:22:45Z</time>
      </trkpt>
      <trkpt lat="43.4744" lon="6.41668">
        <ele>125.6</ele>
        <time>2022-12-12T11:23:07Z</time>
      </trkpt>
      <trkpt lat="43.47431" lon="6.4167">
        <ele>129.1</ele>
        <time>2022-12-12T11:24:12Z</time>
      </trkpt>
      <trkpt lat="43.47422" lon="6.41668">
        <ele>127.1</ele>
        <time>2022-12-12T11:24:24Z</time>
      </trkpt>
      <trkpt lat="43.47412" lon="6.41669">
        <ele>123.6</ele>
        <time>2022-12-12T11:24:53Z</time>
      </trkpt>
      <trkpt lat="43.47404" lon="6.41675">
        <ele>123.4</ele>
        <time>2022-12-12T11:25:07Z</time>
      </trkpt>
      <trkpt lat="43.47395" lon="6.41678">
        <ele>122.4</ele>
        <time>2022-12-12T11:25:34Z</time>
      </trkpt>
      <trkpt lat="43.47386" lon="6.41681">
        <ele>121.5</ele>
        <time>2022-12-12T11:25:48Z</time>
      </trkpt>
      <trkpt lat="43.47378" lon="6.41688">
        <ele>124.1</ele>
        <time>2022-12-12T11:26:13Z</time>
      </trkpt>
      <trkpt lat="43.47368" lon="6.41689">
        <ele>125.4</ele>
        <time>2022-12-12T11:26:23Z</time>
      </trkpt>
      <trkpt lat="43.47359" lon="6.41692">
        <ele>125.6</ele>
        <time>2022-12-12T11:26:36Z</time>
      </trkpt>
      <trkpt lat="43.4735" lon="6.41695">
        <ele>125.2</ele>
        <time>2022-12-12T11:26:52Z</time>
      </trkpt>
      <trkpt lat="43.47341" lon="6.41694">
        <ele>122</ele>
        <time>2022-12-12T11:27:03Z</time>
      </trkpt>
      <trkpt lat="43.47332" lon="6.41697">
        <ele>123.8</ele>
        <time>2022-12-12T11:27:12Z</time>
      </trkpt>
      <trkpt lat="43.47323" lon="6.41697">
        <ele>124.4</ele>
        <time>2022-12-12T11:27:21Z</time>
      </trkpt>
      <trkpt lat="43.47314" lon="6.41696">
        <ele>123.7</ele>
        <time>2022-12-12T11:27:30Z</time>
      </trkpt>
      <trkpt lat="43.47304" lon="6.417">
        <ele>123.7</ele>
        <time>2022-12-12T11:27:38Z</time>
      </trkpt>
      <trkpt lat="43.47294" lon="6.41701">
        <ele>122</ele>
        <time>2022-12-12T11:27:50Z</time>
      </trkpt>
      <trkpt lat="43.47285" lon="6.41702">
        <ele>124.6</ele>
        <time>2022-12-12T11:28:03Z</time>
      </trkpt>
      <trkpt lat="43.47276" lon="6.41701">
        <ele>124.6</ele>
        <time>2022-12-12T11:28:17Z</time>
      </trkpt>
      <trkpt lat="43.47266" lon="6.41703">
        <ele>125.1</ele>
        <time>2022-12-12T11:28:29Z</time>
      </trkpt>
      <trkpt lat="43.47257" lon="6.41704">
        <ele>125.5</ele>
        <time>2022-12-12T11:28:38Z</time>
      </trkpt>
      <trkpt lat="43.47247" lon="6.41703">
        <ele>125.1</ele>
        <time>2022-12-12T11:28:47Z</time>
      </trkpt>
      <trkpt lat="43.47238" lon="6.41703">
        <ele>125.2</ele>
        <time>2022-12-12T11:28:54Z</time>
      </trkpt>
      <trkpt lat="43.47228" lon="6.41707">
        <ele>125.2</ele>
        <time>2022-12-12T11:29:01Z</time>
      </trkpt>
      <trkpt lat="43.47219" lon="6.41704">
        <ele>125.6</ele>
        <time>2022-12-12T11:29:07Z</time>
      </trkpt>
      <trkpt lat="43.4721" lon="6.41706">
        <ele>126.2</ele>
        <time>2022-12-12T11:29:18Z</time>
      </trkpt>
      <trkpt lat="43.472" lon="6.41704">
        <ele>126.5</ele>
        <time>2022-12-12T11:29:27Z</time>
      </trkpt>
      <trkpt lat="43.4719" lon="6.41705">
        <ele>126.4</ele>
        <time>2022-12-12T11:29:37Z</time>
      </trkpt>
      <trkpt lat="43.4718" lon="6.41704">
        <ele>126.3</ele>
        <time>2022-12-12T11:29:47Z</time>
      </trkpt>
      <trkpt lat="43.47171" lon="6.41702">
        <ele>126.9</ele>
        <time>2022-12-12T11:29:55Z</time>
      </trkpt>
      <trkpt lat="43.47161" lon="6.417">
        <ele>126.7</ele>
        <time>2022-12-12T11:30:02Z</time>
      </trkpt>
      <trkpt lat="43.47151" lon="6.41699">
        <ele>127</ele>
        <time>2022-12-12T11:30:08Z</time>
      </trkpt>
      <trkpt lat="43.47141" lon="6.41696">
        <ele>129.1</ele>
        <time>2022-12-12T11:30:18Z</time>
      </trkpt>
      <trkpt lat="43.47135" lon="6.41686">
        <ele>126.4</ele>
        <time>2022-12-12T11:31:01Z</time>
      </trkpt>
      <trkpt lat="43.47126" lon="6.41689">
        <ele>126.3</ele>
        <time>2022-12-12T11:31:25Z</time>
      </trkpt>
      <trkpt lat="43.47117" lon="6.41688">
        <ele>125.9</ele>
        <time>2022-12-12T11:31:38Z</time>
      </trkpt>
      <trkpt lat="43.47108" lon="6.41685">
        <ele>125.5</ele>
        <time>2022-12-12T11:31:49Z</time>
      </trkpt>
      <trkpt lat="43.47099" lon="6.41682">
        <ele>125.2</ele>
        <time>2022-12-12T11:31:57Z</time>
      </trkpt>
      <trkpt lat="43.4709" lon="6.41678">
        <ele>124.8</ele>
        <time>2022-12-12T11:32:06Z</time>
      </trkpt>
      <trkpt lat="43.47081" lon="6.41673">
        <ele>124.5</ele>
        <time>2022-12-12T11:32:16Z</time>
      </trkpt>
      <trkpt lat="43.47072" lon="6.41668">
        <ele>124.3</ele>
        <time>2022-12-12T11:32:24Z</time>
      </trkpt>
      <trkpt lat="43.47065" lon="6.4166">
        <ele>123.8</ele>
        <time>2022-12-12T11:32:36Z</time>
      </trkpt>
      <trkpt lat="43.47061" lon="6.41648">
        <ele>123.1</ele>
        <time>2022-12-12T11:32:50Z</time>
      </trkpt>
      <trkpt lat="43.47055" lon="6.41637">
        <ele>122.4</ele>
        <time>2022-12-12T11:33:05Z</time>
      </trkpt>
      <trkpt lat="43.47051" lon="6.41624">
        <ele>121.7</ele>
        <time>2022-12-12T11:33:14Z</time>
      </trkpt>
      <trkpt lat="43.4705" lon="6.41611">
        <ele>120.9</ele>
        <time>2022-12-12T11:33:23Z</time>
      </trkpt>
      <trkpt lat="43.47044" lon="6.416">
        <ele>119.9</ele>
        <time>2022-12-12T11:33:33Z</time>
      </trkpt>
      <trkpt lat="43.47038" lon="6.4159">
        <ele>118.8</ele>
        <time>2022-12-12T11:33:43Z</time>
      </trkpt>
      <trkpt lat="43.47034" lon="6.41602">
        <ele>116</ele>
        <time>2022-12-12T11:34:20Z</time>
      </trkpt>
      <trkpt lat="43.47028" lon="6.41612">
        <ele>115.4</ele>
        <time>2022-12-12T11:34:28Z</time>
      </trkpt>
      <trkpt lat="43.47021" lon="6.41622">
        <ele>114.9</ele>
        <time>2022-12-12T11:34:38Z</time>
      </trkpt>
      <trkpt lat="43.47015" lon="6.41633">
        <ele>114.2</ele>
        <time>2022-12-12T11:34:48Z</time>
      </trkpt>
      <trkpt lat="43.47009" lon="6.41642">
        <ele>115.4</ele>
        <time>2022-12-12T11:35:55Z</time>
      </trkpt>
      <trkpt lat="43.47018" lon="6.41645">
        <ele>113.5</ele>
        <time>2022-12-12T11:42:00Z</time>
      </trkpt>
      <trkpt lat="43.4701" lon="6.41649">
        <ele>113.7</ele>
        <time>2022-12-12T11:45:38Z</time>
      </trkpt>
      <trkpt lat="43.47017" lon="6.41641">
        <ele>116.4</ele>
        <time>2022-12-12T11:55:40Z</time>
      </trkpt>
      <trkpt lat="43.4701" lon="6.41649">
        <ele>116.9</ele>
        <time>2022-12-12T12:02:24Z</time>
      </trkpt>
      <trkpt lat="43.47019" lon="6.41647">
        <ele>118.5</ele>
        <time>2022-12-12T12:18:01Z</time>
      </trkpt>
      <trkpt lat="43.4701" lon="6.41648">
        <ele>119</ele>
        <time>2022-12-12T12:18:36Z</time>
      </trkpt>
      <trkpt lat="43.47005" lon="6.4166">
        <ele>117.6</ele>
        <time>2022-12-12T12:19:55Z</time>
      </trkpt>
      <trkpt lat="43.47007" lon="6.41672">
        <ele>116.1</ele>
        <time>2022-12-12T12:20:14Z</time>
      </trkpt>
      <trkpt lat="43.47" lon="6.41681">
        <ele>115.7</ele>
        <time>2022-12-12T12:25:18Z</time>
      </trkpt>
      <trkpt lat="43.47002" lon="6.41694">
        <ele>114.5</ele>
        <time>2022-12-12T12:25:47Z</time>
      </trkpt>
      <trkpt lat="43.47005" lon="6.41706">
        <ele>113.5</ele>
        <time>2022-12-12T12:26:25Z</time>
      </trkpt>
      <trkpt lat="43.47005" lon="6.4172">
        <ele>113.3</ele>
        <time>2022-12-12T12:26:52Z</time>
      </trkpt>
      <trkpt lat="43.4701" lon="6.41731">
        <ele>114</ele>
        <time>2022-12-12T12:27:28Z</time>
      </trkpt>
      <trkpt lat="43.4701" lon="6.41744">
        <ele>113.7</ele>
        <time>2022-12-12T12:27:39Z</time>
      </trkpt>
      <trkpt lat="43.47015" lon="6.41755">
        <ele>113.3</ele>
        <time>2022-12-12T12:27:51Z</time>
      </trkpt>
      <trkpt lat="43.47008" lon="6.41763">
        <ele>113.8</ele>
        <time>2022-12-12T12:28:07Z</time>
      </trkpt>
      <trkpt lat="43.46998" lon="6.41763">
        <ele>112.6</ele>
        <time>2022-12-12T12:28:21Z</time>
      </trkpt>
      <trkpt lat="43.46989" lon="6.41762">
        <ele>113.7</ele>
        <time>2022-12-12T12:28:41Z</time>
      </trkpt>
      <trkpt lat="43.46985" lon="6.41774">
        <ele>115.2</ele>
        <time>2022-12-12T12:28:54Z</time>
      </trkpt>
      <trkpt lat="43.46979" lon="6.41784">
        <ele>116.3</ele>
        <time>2022-12-12T12:29:03Z</time>
      </trkpt>
      <trkpt lat="43.46976" lon="6.41796">
        <ele>116.2</ele>
        <time>2022-12-12T12:29:16Z</time>
      </trkpt>
      <trkpt lat="43.46973" lon="6.41809">
        <ele>116.9</ele>
        <time>2022-12-12T12:29:29Z</time>
      </trkpt>
      <trkpt lat="43.4697" lon="6.41821">
        <ele>118.7</ele>
        <time>2022-12-12T12:29:38Z</time>
      </trkpt>
      <trkpt lat="43.46967" lon="6.41834">
        <ele>119.3</ele>
        <time>2022-12-12T12:30:04Z</time>
      </trkpt>
      <trkpt lat="43.46965" lon="6.41846">
        <ele>117.7</ele>
        <time>2022-12-12T12:30:19Z</time>
      </trkpt>
      <trkpt lat="43.46959" lon="6.41857">
        <ele>117.6</ele>
        <time>2022-12-12T12:30:29Z</time>
      </trkpt>
      <trkpt lat="43.46957" lon="6.4187">
        <ele>119.9</ele>
        <time>2022-12-12T12:30:41Z</time>
      </trkpt>
      <trkpt lat="43.46951" lon="6.4188">
        <ele>119.5</ele>
        <time>2022-12-12T12:30:50Z</time>
      </trkpt>
      <trkpt lat="43.46942" lon="6.41886">
        <ele>119.9</ele>
        <time>2022-12-12T12:31:04Z</time>
      </trkpt>
      <trkpt lat="43.46936" lon="6.41896">
        <ele>120.6</ele>
        <time>2022-12-12T12:32:06Z</time>
      </trkpt>
      <trkpt lat="43.46931" lon="6.41905">
        <ele>120.4</ele>
        <time>2022-12-12T12:32:19Z</time>
      </trkpt>
      <trkpt lat="43.46924" lon="6.41915">
        <ele>119.7</ele>
        <time>2022-12-12T12:32:32Z</time>
      </trkpt>
      <trkpt lat="43.46916" lon="6.41921">
        <ele>119.5</ele>
        <time>2022-12-12T12:32:44Z</time>
      </trkpt>
      <trkpt lat="43.46909" lon="6.41932">
        <ele>119.8</ele>
        <time>2022-12-12T12:32:57Z</time>
      </trkpt>
      <trkpt lat="43.46906" lon="6.41945">
        <ele>120.2</ele>
        <time>2022-12-12T12:33:07Z</time>
      </trkpt>
      <trkpt lat="43.469" lon="6.41956">
        <ele>120</ele>
        <time>2022-12-12T12:33:17Z</time>
      </trkpt>
      <trkpt lat="43.46898" lon="6.41967">
        <ele>121.2</ele>
        <time>2022-12-12T12:33:24Z</time>
      </trkpt>
      <trkpt lat="43.46889" lon="6.41973">
        <ele>123.1</ele>
        <time>2022-12-12T12:33:36Z</time>
      </trkpt>
      <trkpt lat="43.4688" lon="6.41978">
        <ele>122.8</ele>
        <time>2022-12-12T12:33:45Z</time>
      </trkpt>
      <trkpt lat="43.46871" lon="6.41985">
        <ele>121</ele>
        <time>2022-12-12T12:33:53Z</time>
      </trkpt>
      <trkpt lat="43.46863" lon="6.41992">
        <ele>119.5</ele>
        <time>2022-12-12T12:34:04Z</time>
      </trkpt>
      <trkpt lat="43.46855" lon="6.41997">
        <ele>114.7</ele>
        <time>2022-12-12T12:34:17Z</time>
      </trkpt>
      <trkpt lat="43.46846" lon="6.42004">
        <ele>116.8</ele>
        <time>2022-12-12T12:34:28Z</time>
      </trkpt>
      <trkpt lat="43.4684" lon="6.42014">
        <ele>121.1</ele>
        <time>2022-12-12T12:34:40Z</time>
      </trkpt>
      <trkpt lat="43.46832" lon="6.42023">
        <ele>123.2</ele>
        <time>2022-12-12T12:34:52Z</time>
      </trkpt>
      <trkpt lat="43.46824" lon="6.42028">
        <ele>123.3</ele>
        <time>2022-12-12T12:35:01Z</time>
      </trkpt>
      <trkpt lat="43.46815" lon="6.42034">
        <ele>124.9</ele>
        <time>2022-12-12T12:35:13Z</time>
      </trkpt>
      <trkpt lat="43.46807" lon="6.42041">
        <ele>125.2</ele>
        <time>2022-12-12T12:35:23Z</time>
      </trkpt>
      <trkpt lat="43.46801" lon="6.4205">
        <ele>123.2</ele>
        <time>2022-12-12T12:35:34Z</time>
      </trkpt>
      <trkpt lat="43.46791" lon="6.42053">
        <ele>124.1</ele>
        <time>2022-12-12T12:35:46Z</time>
      </trkpt>
      <trkpt lat="43.46782" lon="6.42058">
        <ele>125.4</ele>
        <time>2022-12-12T12:35:56Z</time>
      </trkpt>
      <trkpt lat="43.46775" lon="6.42068">
        <ele>126.2</ele>
        <time>2022-12-12T12:36:08Z</time>
      </trkpt>
      <trkpt lat="43.46771" lon="6.42079">
        <ele>127.9</ele>
        <time>2022-12-12T12:36:18Z</time>
      </trkpt>
      <trkpt lat="43.4677" lon="6.42092">
        <ele>128.7</ele>
        <time>2022-12-12T12:36:27Z</time>
      </trkpt>
      <trkpt lat="43.46767" lon="6.42104">
        <ele>135.2</ele>
        <time>2022-12-12T12:36:37Z</time>
      </trkpt>
      <trkpt lat="43.46766" lon="6.42117">
        <ele>131</ele>
        <time>2022-12-12T12:36:48Z</time>
      </trkpt>
      <trkpt lat="43.46764" lon="6.42129">
        <ele>128.5</ele>
        <time>2022-12-12T12:36:58Z</time>
      </trkpt>
      <trkpt lat="43.46757" lon="6.42138">
        <ele>125</ele>
        <time>2022-12-12T12:37:09Z</time>
      </trkpt>
      <trkpt lat="43.46748" lon="6.42138">
        <ele>124.1</ele>
        <time>2022-12-12T12:37:21Z</time>
      </trkpt>
      <trkpt lat="43.46739" lon="6.42137">
        <ele>123.3</ele>
        <time>2022-12-12T12:37:31Z</time>
      </trkpt>
      <trkpt lat="43.4673" lon="6.42132">
        <ele>128.6</ele>
        <time>2022-12-12T12:37:41Z</time>
      </trkpt>
      <trkpt lat="43.46723" lon="6.42125">
        <ele>130.6</ele>
        <time>2022-12-12T12:37:51Z</time>
      </trkpt>
      <trkpt lat="43.46715" lon="6.42118">
        <ele>131</ele>
        <time>2022-12-12T12:38:01Z</time>
      </trkpt>
      <trkpt lat="43.46706" lon="6.42112">
        <ele>131.2</ele>
        <time>2022-12-12T12:38:12Z</time>
      </trkpt>
      <trkpt lat="43.46698" lon="6.42105">
        <ele>131.3</ele>
        <time>2022-12-12T12:38:22Z</time>
      </trkpt>
      <trkpt lat="43.4669" lon="6.42098">
        <ele>131.3</ele>
        <time>2022-12-12T12:38:31Z</time>
      </trkpt>
      <trkpt lat="43.46681" lon="6.42094">
        <ele>131.3</ele>
        <time>2022-12-12T12:38:43Z</time>
      </trkpt>
      <trkpt lat="43.46674" lon="6.42086">
        <ele>131.6</ele>
        <time>2022-12-12T12:38:53Z</time>
      </trkpt>
      <trkpt lat="43.46665" lon="6.42081">
        <ele>131.5</ele>
        <time>2022-12-12T12:39:04Z</time>
      </trkpt>
      <trkpt lat="43.46657" lon="6.42076">
        <ele>129.6</ele>
        <time>2022-12-12T12:39:17Z</time>
      </trkpt>
      <trkpt lat="43.46648" lon="6.42078">
        <ele>132.9</ele>
        <time>2022-12-12T12:39:27Z</time>
      </trkpt>
      <trkpt lat="43.46638" lon="6.42077">
        <ele>133.4</ele>
        <time>2022-12-12T12:39:38Z</time>
      </trkpt>
      <trkpt lat="43.46629" lon="6.42073">
        <ele>133.7</ele>
        <time>2022-12-12T12:39:57Z</time>
      </trkpt>
      <trkpt lat="43.4662" lon="6.42069">
        <ele>133.7</ele>
        <time>2022-12-12T12:40:10Z</time>
      </trkpt>
      <trkpt lat="43.4661" lon="6.4207">
        <ele>133.4</ele>
        <time>2022-12-12T12:41:01Z</time>
      </trkpt>
      <trkpt lat="43.46601" lon="6.42071">
        <ele>133.1</ele>
        <time>2022-12-12T12:41:10Z</time>
      </trkpt>
      <trkpt lat="43.46591" lon="6.42071">
        <ele>131.4</ele>
        <time>2022-12-12T12:41:36Z</time>
      </trkpt>
      <trkpt lat="43.46582" lon="6.42073">
        <ele>130.3</ele>
        <time>2022-12-12T12:42:19Z</time>
      </trkpt>
      <trkpt lat="43.4659" lon="6.42066">
        <ele>127.7</ele>
        <time>2022-12-12T12:42:52Z</time>
      </trkpt>
      <trkpt lat="43.4658" lon="6.42064">
        <ele>128.5</ele>
        <time>2022-12-12T12:43:14Z</time>
      </trkpt>
      <trkpt lat="43.46574" lon="6.42072">
        <ele>129.1</ele>
        <time>2022-12-12T12:43:28Z</time>
      </trkpt>
      <trkpt lat="43.46564" lon="6.42073">
        <ele>128.7</ele>
        <time>2022-12-12T12:44:28Z</time>
      </trkpt>
      <trkpt lat="43.46559" lon="6.42084">
        <ele>128.8</ele>
        <time>2022-12-12T12:45:01Z</time>
      </trkpt>
      <trkpt lat="43.46558" lon="6.42097">
        <ele>129.4</ele>
        <time>2022-12-12T12:45:17Z</time>
      </trkpt>
      <trkpt lat="43.46552" lon="6.42108">
        <ele>130.8</ele>
        <time>2022-12-12T12:45:46Z</time>
      </trkpt>
      <trkpt lat="43.46545" lon="6.42116">
        <ele>132.3</ele>
        <time>2022-12-12T12:46:35Z</time>
      </trkpt>
      <trkpt lat="43.46538" lon="6.42125">
        <ele>132.4</ele>
        <time>2022-12-12T12:46:51Z</time>
      </trkpt>
      <trkpt lat="43.46533" lon="6.42135">
        <ele>133</ele>
        <time>2022-12-12T12:47:01Z</time>
      </trkpt>
      <trkpt lat="43.46528" lon="6.42146">
        <ele>134</ele>
        <time>2022-12-12T12:47:17Z</time>
      </trkpt>
      <trkpt lat="43.46524" lon="6.42157">
        <ele>134.7</ele>
        <time>2022-12-12T12:47:26Z</time>
      </trkpt>
      <trkpt lat="43.46521" lon="6.42171">
        <ele>135.8</ele>
        <time>2022-12-12T12:47:38Z</time>
      </trkpt>
      <trkpt lat="43.46519" lon="6.42184">
        <ele>135.9</ele>
        <time>2022-12-12T12:47:47Z</time>
      </trkpt>
      <trkpt lat="43.4652" lon="6.42197">
        <ele>136.6</ele>
        <time>2022-12-12T12:47:57Z</time>
      </trkpt>
      <trkpt lat="43.46519" lon="6.4221">
        <ele>137.1</ele>
        <time>2022-12-12T12:48:08Z</time>
      </trkpt>
      <trkpt lat="43.46519" lon="6.42223">
        <ele>137.7</ele>
        <time>2022-12-12T12:48:18Z</time>
      </trkpt>
      <trkpt lat="43.46514" lon="6.42235">
        <ele>138.1</ele>
        <time>2022-12-12T12:48:28Z</time>
      </trkpt>
      <trkpt lat="43.46509" lon="6.42246">
        <ele>136.5</ele>
        <time>2022-12-12T12:48:39Z</time>
      </trkpt>
      <trkpt lat="43.46503" lon="6.42255">
        <ele>138.6</ele>
        <time>2022-12-12T12:48:47Z</time>
      </trkpt>
      <trkpt lat="43.46497" lon="6.42266">
        <ele>139.6</ele>
        <time>2022-12-12T12:48:56Z</time>
      </trkpt>
      <trkpt lat="43.46496" lon="6.42279">
        <ele>137.7</ele>
        <time>2022-12-12T12:49:05Z</time>
      </trkpt>
      <trkpt lat="43.46501" lon="6.4229">
        <ele>138.8</ele>
        <time>2022-12-12T12:49:14Z</time>
      </trkpt>
      <trkpt lat="43.46508" lon="6.42299">
        <ele>140</ele>
        <time>2022-12-12T12:49:23Z</time>
      </trkpt>
      <trkpt lat="43.46513" lon="6.4231">
        <ele>139.2</ele>
        <time>2022-12-12T12:49:33Z</time>
      </trkpt>
      <trkpt lat="43.46518" lon="6.42322">
        <ele>139.4</ele>
        <time>2022-12-12T12:49:43Z</time>
      </trkpt>
      <trkpt lat="43.46522" lon="6.42334">
        <ele>139.9</ele>
        <time>2022-12-12T12:49:53Z</time>
      </trkpt>
      <trkpt lat="43.46523" lon="6.42346">
        <ele>141.2</ele>
        <time>2022-12-12T12:50:02Z</time>
      </trkpt>
      <trkpt lat="43.46524" lon="6.4236">
        <ele>141.1</ele>
        <time>2022-12-12T12:50:12Z</time>
      </trkpt>
      <trkpt lat="43.46524" lon="6.42373">
        <ele>141.2</ele>
        <time>2022-12-12T12:50:22Z</time>
      </trkpt>
      <trkpt lat="43.46524" lon="6.42386">
        <ele>141.3</ele>
        <time>2022-12-12T12:50:32Z</time>
      </trkpt>
      <trkpt lat="43.46523" lon="6.424">
        <ele>141.1</ele>
        <time>2022-12-12T12:50:41Z</time>
      </trkpt>
      <trkpt lat="43.46524" lon="6.42413">
        <ele>141.8</ele>
        <time>2022-12-12T12:50:50Z</time>
      </trkpt>
      <trkpt lat="43.46525" lon="6.42426">
        <ele>141.8</ele>
        <time>2022-12-12T12:51:01Z</time>
      </trkpt>
      <trkpt lat="43.46526" lon="6.42438">
        <ele>141.9</ele>
        <time>2022-12-12T12:51:10Z</time>
      </trkpt>
      <trkpt lat="43.46527" lon="6.42452">
        <ele>142.5</ele>
        <time>2022-12-12T12:51:22Z</time>
      </trkpt>
      <trkpt lat="43.46528" lon="6.42465">
        <ele>142.8</ele>
        <time>2022-12-12T12:51:32Z</time>
      </trkpt>
      <trkpt lat="43.46526" lon="6.42477">
        <ele>142.8</ele>
        <time>2022-12-12T12:51:42Z</time>
      </trkpt>
      <trkpt lat="43.46518" lon="6.42483">
        <ele>146.9</ele>
        <time>2022-12-12T12:52:00Z</time>
      </trkpt>
      <trkpt lat="43.46511" lon="6.42475">
        <ele>143.7</ele>
        <time>2022-12-12T12:52:16Z</time>
      </trkpt>
      <trkpt lat="43.46507" lon="6.42462">
        <ele>142.9</ele>
        <time>2022-12-12T12:52:27Z</time>
      </trkpt>
      <trkpt lat="43.46504" lon="6.42451">
        <ele>142.6</ele>
        <time>2022-12-12T12:52:36Z</time>
      </trkpt>
      <trkpt lat="43.46499" lon="6.42439">
        <ele>142.1</ele>
        <time>2022-12-12T12:52:46Z</time>
      </trkpt>
      <trkpt lat="43.46495" lon="6.42428">
        <ele>142.7</ele>
        <time>2022-12-12T12:52:55Z</time>
      </trkpt>
      <trkpt lat="43.4649" lon="6.42417">
        <ele>143.7</ele>
        <time>2022-12-12T12:53:05Z</time>
      </trkpt>
      <trkpt lat="43.46484" lon="6.42407">
        <ele>143.4</ele>
        <time>2022-12-12T12:53:17Z</time>
      </trkpt>
      <trkpt lat="43.46478" lon="6.42398">
        <ele>144.8</ele>
        <time>2022-12-12T12:53:27Z</time>
      </trkpt>
      <trkpt lat="43.46471" lon="6.42389">
        <ele>142.9</ele>
        <time>2022-12-12T12:53:37Z</time>
      </trkpt>
      <trkpt lat="43.46463" lon="6.42382">
        <ele>144.5</ele>
        <time>2022-12-12T12:53:46Z</time>
      </trkpt>
      <trkpt lat="43.46455" lon="6.42377">
        <ele>146.3</ele>
        <time>2022-12-12T12:53:57Z</time>
      </trkpt>
      <trkpt lat="43.46447" lon="6.4237">
        <ele>144.4</ele>
        <time>2022-12-12T12:54:07Z</time>
      </trkpt>
      <trkpt lat="43.46439" lon="6.42364">
        <ele>146.2</ele>
        <time>2022-12-12T12:54:18Z</time>
      </trkpt>
      <trkpt lat="43.46431" lon="6.42358">
        <ele>145.5</ele>
        <time>2022-12-12T12:54:28Z</time>
      </trkpt>
      <trkpt lat="43.46422" lon="6.42352">
        <ele>144</ele>
        <time>2022-12-12T12:54:38Z</time>
      </trkpt>
      <trkpt lat="43.46413" lon="6.4235">
        <ele>145.1</ele>
        <time>2022-12-12T12:54:48Z</time>
      </trkpt>
      <trkpt lat="43.46403" lon="6.4235">
        <ele>145.9</ele>
        <time>2022-12-12T12:54:59Z</time>
      </trkpt>
      <trkpt lat="43.46394" lon="6.42353">
        <ele>148</ele>
        <time>2022-12-12T12:55:09Z</time>
      </trkpt>
      <trkpt lat="43.46385" lon="6.42357">
        <ele>146.5</ele>
        <time>2022-12-12T12:55:19Z</time>
      </trkpt>
      <trkpt lat="43.46376" lon="6.42363">
        <ele>146.5</ele>
        <time>2022-12-12T12:55:30Z</time>
      </trkpt>
      <trkpt lat="43.46368" lon="6.42368">
        <ele>147.2</ele>
        <time>2022-12-12T12:55:40Z</time>
      </trkpt>
      <trkpt lat="43.46359" lon="6.42375">
        <ele>147.1</ele>
        <time>2022-12-12T12:55:50Z</time>
      </trkpt>
      <trkpt lat="43.46351" lon="6.42382">
        <ele>146.9</ele>
        <time>2022-12-12T12:56:00Z</time>
      </trkpt>
      <trkpt lat="43.46343" lon="6.4239">
        <ele>148</ele>
        <time>2022-12-12T12:56:11Z</time>
      </trkpt>
      <trkpt lat="43.46334" lon="6.42397">
        <ele>148.8</ele>
        <time>2022-12-12T12:56:21Z</time>
      </trkpt>
      <trkpt lat="43.46327" lon="6.42406">
        <ele>147.3</ele>
        <time>2022-12-12T12:56:31Z</time>
      </trkpt>
      <trkpt lat="43.46321" lon="6.42415">
        <ele>147.7</ele>
        <time>2022-12-12T12:56:41Z</time>
      </trkpt>
      <trkpt lat="43.46313" lon="6.42423">
        <ele>148.5</ele>
        <time>2022-12-12T12:56:52Z</time>
      </trkpt>
      <trkpt lat="43.46307" lon="6.42433">
        <ele>149.8</ele>
        <time>2022-12-12T12:57:02Z</time>
      </trkpt>
      <trkpt lat="43.463" lon="6.42442">
        <ele>148.9</ele>
        <time>2022-12-12T12:57:12Z</time>
      </trkpt>
      <trkpt lat="43.46294" lon="6.42452">
        <ele>148.4</ele>
        <time>2022-12-12T12:57:23Z</time>
      </trkpt>
      <trkpt lat="43.46288" lon="6.42463">
        <ele>149</ele>
        <time>2022-12-12T12:57:34Z</time>
      </trkpt>
      <trkpt lat="43.46283" lon="6.42475">
        <ele>148.9</ele>
        <time>2022-12-12T12:57:44Z</time>
      </trkpt>
      <trkpt lat="43.46277" lon="6.42484">
        <ele>149.5</ele>
        <time>2022-12-12T12:57:54Z</time>
      </trkpt>
      <trkpt lat="43.4627" lon="6.42494">
        <ele>149.9</ele>
        <time>2022-12-12T12:58:05Z</time>
      </trkpt>
      <trkpt lat="43.46263" lon="6.42502">
        <ele>150.1</ele>
        <time>2022-12-12T12:58:15Z</time>
      </trkpt>
      <trkpt lat="43.46257" lon="6.42512">
        <ele>150.4</ele>
        <time>2022-12-12T12:58:26Z</time>
      </trkpt>
      <trkpt lat="43.46252" lon="6.42524">
        <ele>150.9</ele>
        <time>2022-12-12T12:58:37Z</time>
      </trkpt>
      <trkpt lat="43.46248" lon="6.42536">
        <ele>151</ele>
        <time>2022-12-12T12:58:48Z</time>
      </trkpt>
      <trkpt lat="43.46245" lon="6.42549">
        <ele>152.8</ele>
        <time>2022-12-12T12:58:59Z</time>
      </trkpt>
      <trkpt lat="43.46243" lon="6.42561">
        <ele>150.9</ele>
        <time>2022-12-12T12:59:09Z</time>
      </trkpt>
      <trkpt lat="43.46239" lon="6.42573">
        <ele>151.3</ele>
        <time>2022-12-12T12:59:18Z</time>
      </trkpt>
      <trkpt lat="43.46237" lon="6.42585">
        <ele>151.9</ele>
        <time>2022-12-12T12:59:28Z</time>
      </trkpt>
      <trkpt lat="43.46234" lon="6.42598">
        <ele>151.9</ele>
        <time>2022-12-12T12:59:38Z</time>
      </trkpt>
      <trkpt lat="43.46233" lon="6.4261">
        <ele>152.3</ele>
        <time>2022-12-12T12:59:48Z</time>
      </trkpt>
      <trkpt lat="43.46232" lon="6.42624">
        <ele>152.7</ele>
        <time>2022-12-12T12:59:59Z</time>
      </trkpt>
      <trkpt lat="43.4623" lon="6.42636">
        <ele>153.1</ele>
        <time>2022-12-12T13:00:09Z</time>
      </trkpt>
      <trkpt lat="43.46228" lon="6.42649">
        <ele>153.2</ele>
        <time>2022-12-12T13:00:19Z</time>
      </trkpt>
      <trkpt lat="43.46225" lon="6.42662">
        <ele>153.9</ele>
        <time>2022-12-12T13:00:29Z</time>
      </trkpt>
      <trkpt lat="43.46223" lon="6.42675">
        <ele>154</ele>
        <time>2022-12-12T13:00:40Z</time>
      </trkpt>
      <trkpt lat="43.46221" lon="6.42688">
        <ele>154.5</ele>
        <time>2022-12-12T13:00:51Z</time>
      </trkpt>
      <trkpt lat="43.46218" lon="6.427">
        <ele>154.5</ele>
        <time>2022-12-12T13:01:02Z</time>
      </trkpt>
      <trkpt lat="43.46215" lon="6.42711">
        <ele>154.6</ele>
        <time>2022-12-12T13:01:13Z</time>
      </trkpt>
      <trkpt lat="43.46212" lon="6.42724">
        <ele>155.6</ele>
        <time>2022-12-12T13:01:22Z</time>
      </trkpt>
      <trkpt lat="43.46213" lon="6.42737">
        <ele>155.7</ele>
        <time>2022-12-12T13:01:31Z</time>
      </trkpt>
      <trkpt lat="43.46213" lon="6.4275">
        <ele>156</ele>
        <time>2022-12-12T13:01:41Z</time>
      </trkpt>
      <trkpt lat="43.46215" lon="6.42763">
        <ele>156.3</ele>
        <time>2022-12-12T13:01:52Z</time>
      </trkpt>
      <trkpt lat="43.46213" lon="6.42775">
        <ele>157.7</ele>
        <time>2022-12-12T13:02:00Z</time>
      </trkpt>
      <trkpt lat="43.46208" lon="6.42786">
        <ele>157.7</ele>
        <time>2022-12-12T13:02:09Z</time>
      </trkpt>
      <trkpt lat="43.46205" lon="6.42798">
        <ele>157.3</ele>
        <time>2022-12-12T13:02:18Z</time>
      </trkpt>
      <trkpt lat="43.46204" lon="6.42812">
        <ele>156.2</ele>
        <time>2022-12-12T13:02:28Z</time>
      </trkpt>
      <trkpt lat="43.46202" lon="6.42824">
        <ele>156.4</ele>
        <time>2022-12-12T13:02:38Z</time>
      </trkpt>
      <trkpt lat="43.46199" lon="6.42836">
        <ele>157.2</ele>
        <time>2022-12-12T13:02:49Z</time>
      </trkpt>
      <trkpt lat="43.46195" lon="6.42848">
        <ele>157.9</ele>
        <time>2022-12-12T13:02:57Z</time>
      </trkpt>
      <trkpt lat="43.46191" lon="6.42861">
        <ele>158.3</ele>
        <time>2022-12-12T13:03:06Z</time>
      </trkpt>
      <trkpt lat="43.46187" lon="6.42872">
        <ele>158</ele>
        <time>2022-12-12T13:03:16Z</time>
      </trkpt>
      <trkpt lat="43.46181" lon="6.42883">
        <ele>158.3</ele>
        <time>2022-12-12T13:03:26Z</time>
      </trkpt>
      <trkpt lat="43.46173" lon="6.4289">
        <ele>158.6</ele>
        <time>2022-12-12T13:03:37Z</time>
      </trkpt>
      <trkpt lat="43.46164" lon="6.42888">
        <ele>158.5</ele>
        <time>2022-12-12T13:03:55Z</time>
      </trkpt>
      <trkpt lat="43.4616" lon="6.42876">
        <ele>159.3</ele>
        <time>2022-12-12T13:04:07Z</time>
      </trkpt>
      <trkpt lat="43.46157" lon="6.42865">
        <ele>159.4</ele>
        <time>2022-12-12T13:04:18Z</time>
      </trkpt>
      <trkpt lat="43.46154" lon="6.42853">
        <ele>159.4</ele>
        <time>2022-12-12T13:04:30Z</time>
      </trkpt>
      <trkpt lat="43.46148" lon="6.42843">
        <ele>159.9</ele>
        <time>2022-12-12T13:04:42Z</time>
      </trkpt>
      <trkpt lat="43.46145" lon="6.42831">
        <ele>159.9</ele>
        <time>2022-12-12T13:04:53Z</time>
      </trkpt>
      <trkpt lat="43.46144" lon="6.42818">
        <ele>160.6</ele>
        <time>2022-12-12T13:05:09Z</time>
      </trkpt>
      <trkpt lat="43.46144" lon="6.42806">
        <ele>160.6</ele>
        <time>2022-12-12T13:05:46Z</time>
      </trkpt>
      <trkpt lat="43.46139" lon="6.42795">
        <ele>160.5</ele>
        <time>2022-12-12T13:06:04Z</time>
      </trkpt>
      <trkpt lat="43.46134" lon="6.42785">
        <ele>160.4</ele>
        <time>2022-12-12T13:06:17Z</time>
      </trkpt>
      <trkpt lat="43.46131" lon="6.42772">
        <ele>160.6</ele>
        <time>2022-12-12T13:06:27Z</time>
      </trkpt>
      <trkpt lat="43.46129" lon="6.42759">
        <ele>160.8</ele>
        <time>2022-12-12T13:06:36Z</time>
      </trkpt>
      <trkpt lat="43.46129" lon="6.42746">
        <ele>161.2</ele>
        <time>2022-12-12T13:06:47Z</time>
      </trkpt>
      <trkpt lat="43.46129" lon="6.42734">
        <ele>161.5</ele>
        <time>2022-12-12T13:06:56Z</time>
      </trkpt>
      <trkpt lat="43.46129" lon="6.4272">
        <ele>161.6</ele>
        <time>2022-12-12T13:07:05Z</time>
      </trkpt>
      <trkpt lat="43.46128" lon="6.42708">
        <ele>161.5</ele>
        <time>2022-12-12T13:07:14Z</time>
      </trkpt>
      <trkpt lat="43.46127" lon="6.42695">
        <ele>160.4</ele>
        <time>2022-12-12T13:07:23Z</time>
      </trkpt>
      <trkpt lat="43.46121" lon="6.42686">
        <ele>162.5</ele>
        <time>2022-12-12T13:07:46Z</time>
      </trkpt>
      <trkpt lat="43.46122" lon="6.42674">
        <ele>162.2</ele>
        <time>2022-12-12T13:08:27Z</time>
      </trkpt>
      <trkpt lat="43.4612" lon="6.42661">
        <ele>162</ele>
        <time>2022-12-12T13:08:38Z</time>
      </trkpt>
      <trkpt lat="43.46117" lon="6.42649">
        <ele>162.4</ele>
        <time>2022-12-12T13:08:47Z</time>
      </trkpt>
      <trkpt lat="43.46114" lon="6.42637">
        <ele>162.6</ele>
        <time>2022-12-12T13:08:56Z</time>
      </trkpt>
      <trkpt lat="43.46111" lon="6.42625">
        <ele>162.8</ele>
        <time>2022-12-12T13:09:04Z</time>
      </trkpt>
      <trkpt lat="43.46106" lon="6.42613">
        <ele>162.9</ele>
        <time>2022-12-12T13:09:13Z</time>
      </trkpt>
      <trkpt lat="43.46101" lon="6.42602">
        <ele>162.8</ele>
        <time>2022-12-12T13:09:23Z</time>
      </trkpt>
      <trkpt lat="43.46095" lon="6.42593">
        <ele>162.9</ele>
        <time>2022-12-12T13:09:40Z</time>
      </trkpt>
      <trkpt lat="43.46089" lon="6.42582">
        <ele>163.5</ele>
        <time>2022-12-12T13:09:49Z</time>
      </trkpt>
      <trkpt lat="43.46083" lon="6.42572">
        <ele>163.4</ele>
        <time>2022-12-12T13:09:58Z</time>
      </trkpt>
      <trkpt lat="43.46076" lon="6.42562">
        <ele>163</ele>
        <time>2022-12-12T13:10:07Z</time>
      </trkpt>
      <trkpt lat="43.46068" lon="6.42556">
        <ele>163.4</ele>
        <time>2022-12-12T13:10:17Z</time>
      </trkpt>
      <trkpt lat="43.46059" lon="6.42554">
        <ele>163.3</ele>
        <time>2022-12-12T13:10:26Z</time>
      </trkpt>
      <trkpt lat="43.4605" lon="6.42549">
        <ele>163.4</ele>
        <time>2022-12-12T13:10:46Z</time>
      </trkpt>
      <trkpt lat="43.4604" lon="6.42552">
        <ele>163.7</ele>
        <time>2022-12-12T13:11:09Z</time>
      </trkpt>
      <trkpt lat="43.46031" lon="6.42555">
        <ele>163.5</ele>
        <time>2022-12-12T13:11:18Z</time>
      </trkpt>
      <trkpt lat="43.46021" lon="6.42555">
        <ele>163.7</ele>
        <time>2022-12-12T13:11:48Z</time>
      </trkpt>
      <trkpt lat="43.46012" lon="6.42559">
        <ele>163.6</ele>
        <time>2022-12-12T13:11:59Z</time>
      </trkpt>
      <trkpt lat="43.46003" lon="6.42563">
        <ele>163.6</ele>
        <time>2022-12-12T13:12:08Z</time>
      </trkpt>
      <trkpt lat="43.45994" lon="6.42567">
        <ele>163.4</ele>
        <time>2022-12-12T13:12:16Z</time>
      </trkpt>
      <trkpt lat="43.45985" lon="6.4257">
        <ele>163.5</ele>
        <time>2022-12-12T13:12:25Z</time>
      </trkpt>
      <trkpt lat="43.45975" lon="6.42572">
        <ele>163.3</ele>
        <time>2022-12-12T13:12:36Z</time>
      </trkpt>
      <trkpt lat="43.45965" lon="6.42574">
        <ele>162.6</ele>
        <time>2022-12-12T13:12:45Z</time>
      </trkpt>
      <trkpt lat="43.45956" lon="6.42575">
        <ele>162.8</ele>
        <time>2022-12-12T13:12:53Z</time>
      </trkpt>
      <trkpt lat="43.45947" lon="6.42578">
        <ele>161.9</ele>
        <time>2022-12-12T13:13:01Z</time>
      </trkpt>
      <trkpt lat="43.45937" lon="6.4258">
        <ele>162.7</ele>
        <time>2022-12-12T13:13:10Z</time>
      </trkpt>
      <trkpt lat="43.45928" lon="6.42583">
        <ele>162.9</ele>
        <time>2022-12-12T13:13:19Z</time>
      </trkpt>
      <trkpt lat="43.45919" lon="6.42584">
        <ele>162.8</ele>
        <time>2022-12-12T13:13:27Z</time>
      </trkpt>
      <trkpt lat="43.45909" lon="6.42584">
        <ele>163.4</ele>
        <time>2022-12-12T13:13:40Z</time>
      </trkpt>
      <trkpt lat="43.45899" lon="6.42585">
        <ele>163.8</ele>
        <time>2022-12-12T13:13:49Z</time>
      </trkpt>
      <trkpt lat="43.45889" lon="6.42586">
        <ele>164.9</ele>
        <time>2022-12-12T13:13:59Z</time>
      </trkpt>
      <trkpt lat="43.4588" lon="6.42589">
        <ele>164</ele>
        <time>2022-12-12T13:14:08Z</time>
      </trkpt>
      <trkpt lat="43.4587" lon="6.42591">
        <ele>164.3</ele>
        <time>2022-12-12T13:14:17Z</time>
      </trkpt>
      <trkpt lat="43.45862" lon="6.42595">
        <ele>166</ele>
        <time>2022-12-12T13:14:29Z</time>
      </trkpt>
      <trkpt lat="43.45854" lon="6.42602">
        <ele>165.8</ele>
        <time>2022-12-12T13:16:49Z</time>
      </trkpt>
      <trkpt lat="43.45845" lon="6.42607">
        <ele>165.7</ele>
        <time>2022-12-12T13:17:08Z</time>
      </trkpt>
      <trkpt lat="43.45838" lon="6.42616">
        <ele>165.8</ele>
        <time>2022-12-12T13:17:21Z</time>
      </trkpt>
      <trkpt lat="43.45831" lon="6.42624">
        <ele>165.3</ele>
        <time>2022-12-12T13:17:34Z</time>
      </trkpt>
      <trkpt lat="43.45828" lon="6.42636">
        <ele>164.9</ele>
        <time>2022-12-12T13:17:50Z</time>
      </trkpt>
      <trkpt lat="43.45824" lon="6.42647">
        <ele>165</ele>
        <time>2022-12-12T13:18:01Z</time>
      </trkpt>
      <trkpt lat="43.45819" lon="6.42658">
        <ele>164.5</ele>
        <time>2022-12-12T13:18:11Z</time>
      </trkpt>
      <trkpt lat="43.45816" lon="6.4267">
        <ele>164.2</ele>
        <time>2022-12-12T13:18:20Z</time>
      </trkpt>
      <trkpt lat="43.45811" lon="6.4268">
        <ele>163.8</ele>
        <time>2022-12-12T13:18:29Z</time>
      </trkpt>
      <trkpt lat="43.45806" lon="6.42692">
        <ele>163</ele>
        <time>2022-12-12T13:18:39Z</time>
      </trkpt>
      <trkpt lat="43.458" lon="6.42702">
        <ele>162.5</ele>
        <time>2022-12-12T13:18:49Z</time>
      </trkpt>
      <trkpt lat="43.45793" lon="6.4271">
        <ele>161.7</ele>
        <time>2022-12-12T13:18:59Z</time>
      </trkpt>
      <trkpt lat="43.45786" lon="6.42718">
        <ele>160.9</ele>
        <time>2022-12-12T13:19:10Z</time>
      </trkpt>
      <trkpt lat="43.4578" lon="6.4273">
        <ele>160.6</ele>
        <time>2022-12-12T13:19:20Z</time>
      </trkpt>
      <trkpt lat="43.45787" lon="6.42722">
        <ele>161</ele>
        <time>2022-12-12T13:21:54Z</time>
      </trkpt>
      <trkpt lat="43.45792" lon="6.42712">
        <ele>161.4</ele>
        <time>2022-12-12T13:22:07Z</time>
      </trkpt>
      <trkpt lat="43.45797" lon="6.42701">
        <ele>162.1</ele>
        <time>2022-12-12T13:22:17Z</time>
      </trkpt>
      <trkpt lat="43.45803" lon="6.42691">
        <ele>163.6</ele>
        <time>2022-12-12T13:22:51Z</time>
      </trkpt>
      <trkpt lat="43.45796" lon="6.427">
        <ele>161.8</ele>
        <time>2022-12-12T13:26:02Z</time>
      </trkpt>
      <trkpt lat="43.45794" lon="6.42712">
        <ele>161</ele>
        <time>2022-12-12T13:26:24Z</time>
      </trkpt>
      <trkpt lat="43.45787" lon="6.42721">
        <ele>159.8</ele>
        <time>2022-12-12T13:26:38Z</time>
      </trkpt>
      <trkpt lat="43.45784" lon="6.42733">
        <ele>159.8</ele>
        <time>2022-12-12T13:26:51Z</time>
      </trkpt>
      <trkpt lat="43.45779" lon="6.42744">
        <ele>160.4</ele>
        <time>2022-12-12T13:27:12Z</time>
      </trkpt>
      <trkpt lat="43.45773" lon="6.42754">
        <ele>159.6</ele>
        <time>2022-12-12T13:27:25Z</time>
      </trkpt>
      <trkpt lat="43.45773" lon="6.42767">
        <ele>161.6</ele>
        <time>2022-12-12T13:27:33Z</time>
      </trkpt>
      <trkpt lat="43.45771" lon="6.42781">
        <ele>160</ele>
        <time>2022-12-12T13:27:45Z</time>
      </trkpt>
      <trkpt lat="43.45769" lon="6.42793">
        <ele>158.3</ele>
        <time>2022-12-12T13:27:59Z</time>
      </trkpt>
      <trkpt lat="43.45769" lon="6.42806">
        <ele>157.7</ele>
        <time>2022-12-12T13:28:09Z</time>
      </trkpt>
      <trkpt lat="43.45772" lon="6.42819">
        <ele>156.9</ele>
        <time>2022-12-12T13:28:20Z</time>
      </trkpt>
      <trkpt lat="43.45775" lon="6.42831">
        <ele>156.1</ele>
        <time>2022-12-12T13:28:31Z</time>
      </trkpt>
      <trkpt lat="43.45777" lon="6.42844">
        <ele>155.4</ele>
        <time>2022-12-12T13:28:42Z</time>
      </trkpt>
      <trkpt lat="43.45779" lon="6.42857">
        <ele>155</ele>
        <time>2022-12-12T13:28:52Z</time>
      </trkpt>
      <trkpt lat="43.45778" lon="6.42871">
        <ele>154.6</ele>
        <time>2022-12-12T13:29:01Z</time>
      </trkpt>
      <trkpt lat="43.45771" lon="6.42878">
        <ele>154.2</ele>
        <time>2022-12-12T13:29:32Z</time>
      </trkpt>
      <trkpt lat="43.45762" lon="6.42882">
        <ele>154</ele>
        <time>2022-12-12T13:29:49Z</time>
      </trkpt>
      <trkpt lat="43.45753" lon="6.4288">
        <ele>152.9</ele>
        <time>2022-12-12T13:30:02Z</time>
      </trkpt>
      <trkpt lat="43.45743" lon="6.42882">
        <ele>151.5</ele>
        <time>2022-12-12T13:30:14Z</time>
      </trkpt>
      <trkpt lat="43.45734" lon="6.42884">
        <ele>150.2</ele>
        <time>2022-12-12T13:30:31Z</time>
      </trkpt>
      <trkpt lat="43.45726" lon="6.42889">
        <ele>149.4</ele>
        <time>2022-12-12T13:30:44Z</time>
      </trkpt>
      <trkpt lat="43.45718" lon="6.42898">
        <ele>149</ele>
        <time>2022-12-12T13:30:57Z</time>
      </trkpt>
      <trkpt lat="43.4571" lon="6.42904">
        <ele>148.7</ele>
        <time>2022-12-12T13:31:06Z</time>
      </trkpt>
      <trkpt lat="43.45703" lon="6.42912">
        <ele>148.6</ele>
        <time>2022-12-12T13:31:15Z</time>
      </trkpt>
      <trkpt lat="43.45697" lon="6.42921">
        <ele>148.3</ele>
        <time>2022-12-12T13:31:26Z</time>
      </trkpt>
      <trkpt lat="43.4569" lon="6.42931">
        <ele>148.1</ele>
        <time>2022-12-12T13:31:35Z</time>
      </trkpt>
      <trkpt lat="43.45683" lon="6.4294">
        <ele>147.8</ele>
        <time>2022-12-12T13:31:44Z</time>
      </trkpt>
      <trkpt lat="43.45677" lon="6.42951">
        <ele>147.3</ele>
        <time>2022-12-12T13:31:54Z</time>
      </trkpt>
      <trkpt lat="43.45671" lon="6.42962">
        <ele>147</ele>
        <time>2022-12-12T13:32:03Z</time>
      </trkpt>
      <trkpt lat="43.45666" lon="6.42973">
        <ele>146.2</ele>
        <time>2022-12-12T13:32:38Z</time>
      </trkpt>
      <trkpt lat="43.45668" lon="6.42985">
        <ele>145.8</ele>
        <time>2022-12-12T13:32:56Z</time>
      </trkpt>
      <trkpt lat="43.4567" lon="6.42998">
        <ele>145.4</ele>
        <time>2022-12-12T13:33:09Z</time>
      </trkpt>
      <trkpt lat="43.45674" lon="6.43009">
        <ele>144.9</ele>
        <time>2022-12-12T13:33:23Z</time>
      </trkpt>
      <trkpt lat="43.45678" lon="6.4302">
        <ele>144.1</ele>
        <time>2022-12-12T13:33:38Z</time>
      </trkpt>
      <trkpt lat="43.4568" lon="6.43032">
        <ele>143.4</ele>
        <time>2022-12-12T13:33:54Z</time>
      </trkpt>
      <trkpt lat="43.45681" lon="6.43045">
        <ele>142.9</ele>
        <time>2022-12-12T13:34:03Z</time>
      </trkpt>
      <trkpt lat="43.45679" lon="6.43057">
        <ele>142.4</ele>
        <time>2022-12-12T13:34:12Z</time>
      </trkpt>
      <trkpt lat="43.45671" lon="6.43063">
        <ele>141.7</ele>
        <time>2022-12-12T13:34:23Z</time>
      </trkpt>
      <trkpt lat="43.45661" lon="6.43062">
        <ele>140.9</ele>
        <time>2022-12-12T13:34:35Z</time>
      </trkpt>
      <trkpt lat="43.45652" lon="6.43062">
        <ele>140</ele>
        <time>2022-12-12T13:34:50Z</time>
      </trkpt>
      <trkpt lat="43.45642" lon="6.43063">
        <ele>139.6</ele>
        <time>2022-12-12T13:35:03Z</time>
      </trkpt>
      <trkpt lat="43.45633" lon="6.43058">
        <ele>139.9</ele>
        <time>2022-12-12T13:35:18Z</time>
      </trkpt>
      <trkpt lat="43.45637" lon="6.43047">
        <ele>139.6</ele>
        <time>2022-12-12T13:36:06Z</time>
      </trkpt>
      <trkpt lat="43.45631" lon="6.43056">
        <ele>140.1</ele>
        <time>2022-12-12T13:36:44Z</time>
      </trkpt>
      <trkpt lat="43.45624" lon="6.43063">
        <ele>141</ele>
        <time>2022-12-12T13:37:05Z</time>
      </trkpt>
      <trkpt lat="43.45614" lon="6.43068">
        <ele>141.5</ele>
        <time>2022-12-12T13:37:15Z</time>
      </trkpt>
      <trkpt lat="43.45607" lon="6.43075">
        <ele>142.2</ele>
        <time>2022-12-12T13:37:26Z</time>
      </trkpt>
      <trkpt lat="43.45599" lon="6.43084">
        <ele>142.7</ele>
        <time>2022-12-12T13:37:41Z</time>
      </trkpt>
      <trkpt lat="43.45594" lon="6.43094">
        <ele>143.3</ele>
        <time>2022-12-12T13:37:52Z</time>
      </trkpt>
      <trkpt lat="43.45584" lon="6.43096">
        <ele>143.8</ele>
        <time>2022-12-12T13:38:01Z</time>
      </trkpt>
      <trkpt lat="43.45578" lon="6.43106">
        <ele>144.5</ele>
        <time>2022-12-12T13:38:14Z</time>
      </trkpt>
      <trkpt lat="43.45575" lon="6.43119">
        <ele>145.7</ele>
        <time>2022-12-12T13:38:27Z</time>
      </trkpt>
      <trkpt lat="43.45572" lon="6.43131">
        <ele>146.4</ele>
        <time>2022-12-12T13:38:40Z</time>
      </trkpt>
      <trkpt lat="43.45569" lon="6.43143">
        <ele>147.2</ele>
        <time>2022-12-12T13:38:53Z</time>
      </trkpt>
      <trkpt lat="43.45563" lon="6.43154">
        <ele>148</ele>
        <time>2022-12-12T13:39:04Z</time>
      </trkpt>
      <trkpt lat="43.45559" lon="6.43166">
        <ele>148.7</ele>
        <time>2022-12-12T13:39:15Z</time>
      </trkpt>
      <trkpt lat="43.4556" lon="6.4318">
        <ele>149</ele>
        <time>2022-12-12T13:39:21Z</time>
      </trkpt>
      <trkpt lat="43.45558" lon="6.43193">
        <ele>149.6</ele>
        <time>2022-12-12T13:39:30Z</time>
      </trkpt>
      <trkpt lat="43.45556" lon="6.43206">
        <ele>150.4</ele>
        <time>2022-12-12T13:39:39Z</time>
      </trkpt>
      <trkpt lat="43.45553" lon="6.43219">
        <ele>151.2</ele>
        <time>2022-12-12T13:39:48Z</time>
      </trkpt>
      <trkpt lat="43.45549" lon="6.4323">
        <ele>151.8</ele>
        <time>2022-12-12T13:39:57Z</time>
      </trkpt>
      <trkpt lat="43.45543" lon="6.4324">
        <ele>152.3</ele>
        <time>2022-12-12T13:40:06Z</time>
      </trkpt>
      <trkpt lat="43.45537" lon="6.4325">
        <ele>152.9</ele>
        <time>2022-12-12T13:40:14Z</time>
      </trkpt>
      <trkpt lat="43.45532" lon="6.43261">
        <ele>153.6</ele>
        <time>2022-12-12T13:40:23Z</time>
      </trkpt>
      <trkpt lat="43.45525" lon="6.4327">
        <ele>154.4</ele>
        <time>2022-12-12T13:40:33Z</time>
      </trkpt>
      <trkpt lat="43.45518" lon="6.4328">
        <ele>155</ele>
        <time>2022-12-12T13:40:44Z</time>
      </trkpt>
      <trkpt lat="43.45508" lon="6.43277">
        <ele>155.5</ele>
        <time>2022-12-12T13:40:52Z</time>
      </trkpt>
      <trkpt lat="43.455" lon="6.43283">
        <ele>155.8</ele>
        <time>2022-12-12T13:41:05Z</time>
      </trkpt>
      <trkpt lat="43.45494" lon="6.43293">
        <ele>155.9</ele>
        <time>2022-12-12T13:41:15Z</time>
      </trkpt>
      <trkpt lat="43.45485" lon="6.43294">
        <ele>156.1</ele>
        <time>2022-12-12T13:41:21Z</time>
      </trkpt>
      <trkpt lat="43.45475" lon="6.43296">
        <ele>156.7</ele>
        <time>2022-12-12T13:41:30Z</time>
      </trkpt>
      <trkpt lat="43.45465" lon="6.43297">
        <ele>157.4</ele>
        <time>2022-12-12T13:41:39Z</time>
      </trkpt>
      <trkpt lat="43.45455" lon="6.43297">
        <ele>158.1</ele>
        <time>2022-12-12T13:41:47Z</time>
      </trkpt>
      <trkpt lat="43.45445" lon="6.43297">
        <ele>158.7</ele>
        <time>2022-12-12T13:41:56Z</time>
      </trkpt>
      <trkpt lat="43.45437" lon="6.43305">
        <ele>159.5</ele>
        <time>2022-12-12T13:42:16Z</time>
      </trkpt>
      <trkpt lat="43.4543" lon="6.43312">
        <ele>160</ele>
        <time>2022-12-12T13:42:25Z</time>
      </trkpt>
      <trkpt lat="43.45422" lon="6.43321">
        <ele>157.9</ele>
        <time>2022-12-12T13:42:34Z</time>
      </trkpt>
      <trkpt lat="43.45416" lon="6.4333">
        <ele>161.3</ele>
        <time>2022-12-12T13:42:44Z</time>
      </trkpt>
      <trkpt lat="43.45414" lon="6.43342">
        <ele>163.2</ele>
        <time>2022-12-12T13:42:58Z</time>
      </trkpt>
      <trkpt lat="43.45412" lon="6.43355">
        <ele>163.4</ele>
        <time>2022-12-12T13:43:18Z</time>
      </trkpt>
      <trkpt lat="43.45408" lon="6.43366">
        <ele>164.5</ele>
        <time>2022-12-12T13:43:31Z</time>
      </trkpt>
      <trkpt lat="43.454" lon="6.43374">
        <ele>168.8</ele>
        <time>2022-12-12T13:43:41Z</time>
      </trkpt>
      <trkpt lat="43.45396" lon="6.43386">
        <ele>169.8</ele>
        <time>2022-12-12T13:43:52Z</time>
      </trkpt>
      <trkpt lat="43.45387" lon="6.43392">
        <ele>167.5</ele>
        <time>2022-12-12T13:44:04Z</time>
      </trkpt>
      <trkpt lat="43.4538" lon="6.43399">
        <ele>167.8</ele>
        <time>2022-12-12T13:44:14Z</time>
      </trkpt>
      <trkpt lat="43.45372" lon="6.43407">
        <ele>169.2</ele>
        <time>2022-12-12T13:44:24Z</time>
      </trkpt>
      <trkpt lat="43.45364" lon="6.43414">
        <ele>169.9</ele>
        <time>2022-12-12T13:44:34Z</time>
      </trkpt>
      <trkpt lat="43.45355" lon="6.4342">
        <ele>170.2</ele>
        <time>2022-12-12T13:44:44Z</time>
      </trkpt>
      <trkpt lat="43.45346" lon="6.43423">
        <ele>171</ele>
        <time>2022-12-12T13:44:54Z</time>
      </trkpt>
      <trkpt lat="43.45337" lon="6.43428">
        <ele>170.9</ele>
        <time>2022-12-12T13:45:03Z</time>
      </trkpt>
      <trkpt lat="43.45328" lon="6.43431">
        <ele>169.8</ele>
        <time>2022-12-12T13:45:13Z</time>
      </trkpt>
      <trkpt lat="43.45329" lon="6.43444">
        <ele>173.7</ele>
        <time>2022-12-12T13:45:24Z</time>
      </trkpt>
      <trkpt lat="43.45336" lon="6.43451">
        <ele>173.9</ele>
        <time>2022-12-12T13:46:37Z</time>
      </trkpt>
      <trkpt lat="43.45336" lon="6.43452">
        <ele>173</ele>
        <time>2022-12-12T13:46:42Z</time>
      </trkpt>
    </trkseg>
  </trk>
</gpx>